<?xml version="1.0" encoding="utf-8"?>
<gpx xmlns:xsi="http://www.w3.org/2001/XMLSchema-instance" xmlns:xsd="http://www.w3.org/2001/XMLSchema" version="1.1" creator="Shapelink.com" xmlns="http://www.topografix.com/GPX/1/1" xmlns:gpxtpx="http://www.garmin.com/xmlschemas/TrackPointExtension/v1">
  <metadata>
    <name>Längdskidåkning - Skate 5.93 km, 2018-01-23</name>
    <desc></desc>
    <author><name>Alexander Engvall</name></author> 
    <time>2018-01-23T19:08:16Z</time>
  </metadata>
  <trk>
    <name>Längdskidåkning - Skate 5.93 km, 2018-01-23</name>
    <trkseg>
      <trkpt lat="61.174982" lon="12.951522">
        <ele>636.9</ele>
        <time>2018-01-23T19:08:16Z</time>
      </trkpt>
      <trkpt lat="61.174992" lon="12.951577">
        <ele>636.8</ele>
        <time>2018-01-23T19:08:17Z</time>
      </trkpt>
      <trkpt lat="61.175033" lon="12.951752">
        <ele>636.7</ele>
        <time>2018-01-23T19:08:20Z</time>
      </trkpt>
      <trkpt lat="61.175047" lon="12.951817">
        <ele>636.6</ele>
        <time>2018-01-23T19:08:21Z</time>
      </trkpt>
      <trkpt lat="61.175077" lon="12.951964">
        <ele>636.5</ele>
        <time>2018-01-23T19:08:23Z</time>
      </trkpt>
      <trkpt lat="61.175099" lon="12.952124">
        <ele>636.3</ele>
        <time>2018-01-23T19:08:25Z</time>
      </trkpt>
      <trkpt lat="61.175124" lon="12.952355">
        <ele>636</ele>
        <time>2018-01-23T19:08:28Z</time>
      </trkpt>
      <trkpt lat="61.175118" lon="12.95251">
        <ele>635.7</ele>
        <time>2018-01-23T19:08:30Z</time>
      </trkpt>
      <trkpt lat="61.175119" lon="12.952559">
        <ele>635.5</ele>
        <time>2018-01-23T19:08:31Z</time>
      </trkpt>
      <trkpt lat="61.175113" lon="12.95286">
        <ele>635.3</ele>
        <time>2018-01-23T19:08:35Z</time>
      </trkpt>
      <trkpt lat="61.175102" lon="12.953174">
        <ele>635</ele>
        <time>2018-01-23T19:08:39Z</time>
      </trkpt>
      <trkpt lat="61.175087" lon="12.953474">
        <ele>634.7</ele>
        <time>2018-01-23T19:08:43Z</time>
      </trkpt>
      <trkpt lat="61.175074" lon="12.953816">
        <ele>634.4</ele>
        <time>2018-01-23T19:08:47Z</time>
      </trkpt>
      <trkpt lat="61.175062" lon="12.953988">
        <ele>634</ele>
        <time>2018-01-23T19:08:49Z</time>
      </trkpt>
      <trkpt lat="61.175058" lon="12.95405">
        <ele>633.6</ele>
        <time>2018-01-23T19:08:50Z</time>
      </trkpt>
      <trkpt lat="61.175041" lon="12.954313">
        <ele>633.3</ele>
        <time>2018-01-23T19:08:53Z</time>
      </trkpt>
      <trkpt lat="61.175025" lon="12.954707">
        <ele>632.9</ele>
        <time>2018-01-23T19:08:58Z</time>
      </trkpt>
      <trkpt lat="61.175014" lon="12.954873">
        <ele>632.5</ele>
        <time>2018-01-23T19:09:00Z</time>
      </trkpt>
      <trkpt lat="61.174992" lon="12.954967">
        <ele>632</ele>
        <time>2018-01-23T19:09:02Z</time>
      </trkpt>
      <trkpt lat="61.174982" lon="12.95509">
        <ele>631.5</ele>
        <time>2018-01-23T19:09:04Z</time>
      </trkpt>
      <trkpt lat="61.175024" lon="12.955246">
        <ele>630.8</ele>
        <time>2018-01-23T19:09:06Z</time>
      </trkpt>
      <trkpt lat="61.175062" lon="12.95532">
        <ele>630.2</ele>
        <time>2018-01-23T19:09:07Z</time>
      </trkpt>
      <trkpt lat="61.175135" lon="12.955453">
        <ele>629.5</ele>
        <time>2018-01-23T19:09:08Z</time>
      </trkpt>
      <trkpt lat="61.175174" lon="12.955527">
        <ele>628.7</ele>
        <time>2018-01-23T19:09:09Z</time>
      </trkpt>
      <trkpt lat="61.175249" lon="12.955681">
        <ele>627.9</ele>
        <time>2018-01-23T19:09:11Z</time>
      </trkpt>
      <trkpt lat="61.175277" lon="12.955758">
        <ele>627</ele>
        <time>2018-01-23T19:09:12Z</time>
      </trkpt>
      <trkpt lat="61.175341" lon="12.955862">
        <ele>626</ele>
        <time>2018-01-23T19:09:14Z</time>
      </trkpt>
      <trkpt lat="61.175502" lon="12.956063">
        <ele>625.1</ele>
        <time>2018-01-23T19:09:18Z</time>
      </trkpt>
      <trkpt lat="61.175575" lon="12.956165">
        <ele>624.2</ele>
        <time>2018-01-23T19:09:20Z</time>
      </trkpt>
      <trkpt lat="61.175605" lon="12.956199">
        <ele>623.3</ele>
        <time>2018-01-23T19:09:21Z</time>
      </trkpt>
      <trkpt lat="61.175652" lon="12.956261">
        <ele>622.4</ele>
        <time>2018-01-23T19:09:22Z</time>
      </trkpt>
      <trkpt lat="61.175734" lon="12.956381">
        <ele>621.5</ele>
        <time>2018-01-23T19:09:24Z</time>
      </trkpt>
      <trkpt lat="61.175775" lon="12.956428">
        <ele>620.6</ele>
        <time>2018-01-23T19:09:25Z</time>
      </trkpt>
      <trkpt lat="61.175801" lon="12.956472">
        <ele>619.7</ele>
        <time>2018-01-23T19:09:27Z</time>
      </trkpt>
      <trkpt lat="61.175922" lon="12.95666">
        <ele>618.9</ele>
        <time>2018-01-23T19:09:29Z</time>
      </trkpt>
      <trkpt lat="61.176022" lon="12.956834">
        <ele>618</ele>
        <time>2018-01-23T19:09:31Z</time>
      </trkpt>
      <trkpt lat="61.176101" lon="12.956983">
        <ele>617.2</ele>
        <time>2018-01-23T19:09:33Z</time>
      </trkpt>
      <trkpt lat="61.176136" lon="12.957062">
        <ele>616.4</ele>
        <time>2018-01-23T19:09:34Z</time>
      </trkpt>
      <trkpt lat="61.176264" lon="12.957303">
        <ele>615.4</ele>
        <time>2018-01-23T19:09:37Z</time>
      </trkpt>
      <trkpt lat="61.1763" lon="12.957381">
        <ele>614.4</ele>
        <time>2018-01-23T19:09:38Z</time>
      </trkpt>
      <trkpt lat="61.176436" lon="12.957646">
        <ele>613.4</ele>
        <time>2018-01-23T19:09:41Z</time>
      </trkpt>
      <trkpt lat="61.176473" lon="12.957729">
        <ele>612.4</ele>
        <time>2018-01-23T19:09:42Z</time>
      </trkpt>
      <trkpt lat="61.176554" lon="12.957902">
        <ele>611.4</ele>
        <time>2018-01-23T19:09:44Z</time>
      </trkpt>
      <trkpt lat="61.176672" lon="12.958153">
        <ele>610.4</ele>
        <time>2018-01-23T19:09:47Z</time>
      </trkpt>
      <trkpt lat="61.176802" lon="12.958419">
        <ele>609.4</ele>
        <time>2018-01-23T19:09:50Z</time>
      </trkpt>
      <trkpt lat="61.176842" lon="12.958523">
        <ele>608.3</ele>
        <time>2018-01-23T19:09:51Z</time>
      </trkpt>
      <trkpt lat="61.176919" lon="12.958706">
        <ele>607.3</ele>
        <time>2018-01-23T19:09:53Z</time>
      </trkpt>
      <trkpt lat="61.176993" lon="12.958856">
        <ele>606.2</ele>
        <time>2018-01-23T19:09:55Z</time>
      </trkpt>
      <trkpt lat="61.177046" lon="12.958943">
        <ele>605.2</ele>
        <time>2018-01-23T19:09:56Z</time>
      </trkpt>
      <trkpt lat="61.177179" lon="12.959208">
        <ele>604.3</ele>
        <time>2018-01-23T19:09:59Z</time>
      </trkpt>
      <trkpt lat="61.177259" lon="12.959403">
        <ele>603.5</ele>
        <time>2018-01-23T19:10:01Z</time>
      </trkpt>
      <trkpt lat="61.177393" lon="12.959667">
        <ele>602</ele>
        <time>2018-01-23T19:10:03Z</time>
      </trkpt>
      <trkpt lat="61.177421" lon="12.95974">
        <ele>601.4</ele>
        <time>2018-01-23T19:10:04Z</time>
      </trkpt>
      <trkpt lat="61.177463" lon="12.959821">
        <ele>600.7</ele>
        <time>2018-01-23T19:10:05Z</time>
      </trkpt>
      <trkpt lat="61.177494" lon="12.959908">
        <ele>600.3</ele>
        <time>2018-01-23T19:10:06Z</time>
      </trkpt>
      <trkpt lat="61.177532" lon="12.960156">
        <ele>599.8</ele>
        <time>2018-01-23T19:10:09Z</time>
      </trkpt>
      <trkpt lat="61.177551" lon="12.96023">
        <ele>599.5</ele>
        <time>2018-01-23T19:10:10Z</time>
      </trkpt>
      <trkpt lat="61.177561" lon="12.960387">
        <ele>599.2</ele>
        <time>2018-01-23T19:10:12Z</time>
      </trkpt>
      <trkpt lat="61.177563" lon="12.96047">
        <ele>598.9</ele>
        <time>2018-01-23T19:10:13Z</time>
      </trkpt>
      <trkpt lat="61.177575" lon="12.960563">
        <ele>598.8</ele>
        <time>2018-01-23T19:10:14Z</time>
      </trkpt>
      <trkpt lat="61.177623" lon="12.960869">
        <ele>598.7</ele>
        <time>2018-01-23T19:10:17Z</time>
      </trkpt>
      <trkpt lat="61.177644" lon="12.961015">
        <ele>598.7</ele>
        <time>2018-01-23T19:10:19Z</time>
      </trkpt>
      <trkpt lat="61.177639" lon="12.961109">
        <ele>598.8</ele>
        <time>2018-01-23T19:10:20Z</time>
      </trkpt>
      <trkpt lat="61.177578" lon="12.961204">
        <ele>599</ele>
        <time>2018-01-23T19:10:22Z</time>
      </trkpt>
      <trkpt lat="61.177513" lon="12.961303">
        <ele>599.2</ele>
        <time>2018-01-23T19:10:24Z</time>
      </trkpt>
      <trkpt lat="61.177488" lon="12.961358">
        <ele>599.4</ele>
        <time>2018-01-23T19:10:25Z</time>
      </trkpt>
      <trkpt lat="61.1774" lon="12.96148">
        <ele>599.6</ele>
        <time>2018-01-23T19:10:28Z</time>
      </trkpt>
      <trkpt lat="61.177373" lon="12.961507">
        <ele>599.9</ele>
        <time>2018-01-23T19:10:29Z</time>
      </trkpt>
      <trkpt lat="61.177287" lon="12.961678">
        <ele>600.3</ele>
        <time>2018-01-23T19:10:33Z</time>
      </trkpt>
      <trkpt lat="61.177262" lon="12.961778">
        <ele>600.7</ele>
        <time>2018-01-23T19:10:35Z</time>
      </trkpt>
      <trkpt lat="61.17725" lon="12.961827">
        <ele>601.2</ele>
        <time>2018-01-23T19:10:36Z</time>
      </trkpt>
      <trkpt lat="61.177212" lon="12.961989">
        <ele>601.7</ele>
        <time>2018-01-23T19:10:39Z</time>
      </trkpt>
      <trkpt lat="61.17719" lon="12.962054">
        <ele>602.2</ele>
        <time>2018-01-23T19:10:40Z</time>
      </trkpt>
      <trkpt lat="61.177124" lon="12.96219">
        <ele>602.6</ele>
        <time>2018-01-23T19:10:43Z</time>
      </trkpt>
      <trkpt lat="61.176999" lon="12.962316">
        <ele>603.1</ele>
        <time>2018-01-23T19:10:47Z</time>
      </trkpt>
      <trkpt lat="61.176901" lon="12.962342">
        <ele>603.6</ele>
        <time>2018-01-23T19:10:50Z</time>
      </trkpt>
      <trkpt lat="61.17687" lon="12.962515">
        <ele>604.2</ele>
        <time>2018-01-23T19:10:53Z</time>
      </trkpt>
      <trkpt lat="61.17681" lon="12.96268">
        <ele>604.7</ele>
        <time>2018-01-23T19:10:55Z</time>
      </trkpt>
      <trkpt lat="61.176652" lon="12.962912">
        <ele>605.8</ele>
        <time>2018-01-23T19:10:58Z</time>
      </trkpt>
      <trkpt lat="61.176582" lon="12.962954">
        <ele>606.3</ele>
        <time>2018-01-23T19:11:00Z</time>
      </trkpt>
      <trkpt lat="61.176552" lon="12.96296">
        <ele>606.7</ele>
        <time>2018-01-23T19:11:01Z</time>
      </trkpt>
      <trkpt lat="61.176483" lon="12.962965">
        <ele>607.1</ele>
        <time>2018-01-23T19:11:04Z</time>
      </trkpt>
      <trkpt lat="61.17647" lon="12.962964">
        <ele>607.5</ele>
        <time>2018-01-23T19:11:05Z</time>
      </trkpt>
      <trkpt lat="61.176409" lon="12.962931">
        <ele>607.8</ele>
        <time>2018-01-23T19:11:08Z</time>
      </trkpt>
      <trkpt lat="61.176381" lon="12.962937">
        <ele>608.1</ele>
        <time>2018-01-23T19:11:09Z</time>
      </trkpt>
      <trkpt lat="61.176311" lon="12.962984">
        <ele>608.2</ele>
        <time>2018-01-23T19:11:12Z</time>
      </trkpt>
      <trkpt lat="61.176286" lon="12.963009">
        <ele>608.3</ele>
        <time>2018-01-23T19:11:13Z</time>
      </trkpt>
      <trkpt lat="61.176216" lon="12.963086">
        <ele>608.4</ele>
        <time>2018-01-23T19:11:16Z</time>
      </trkpt>
      <trkpt lat="61.176193" lon="12.963151">
        <ele>608.4</ele>
        <time>2018-01-23T19:11:17Z</time>
      </trkpt>
      <trkpt lat="61.17618" lon="12.96325">
        <ele>608.3</ele>
        <time>2018-01-23T19:11:19Z</time>
      </trkpt>
      <trkpt lat="61.176219" lon="12.963598">
        <ele>608.2</ele>
        <time>2018-01-23T19:11:23Z</time>
      </trkpt>
      <trkpt lat="61.176277" lon="12.963882">
        <ele>607.9</ele>
        <time>2018-01-23T19:11:26Z</time>
      </trkpt>
      <trkpt lat="61.176298" lon="12.963975">
        <ele>607.6</ele>
        <time>2018-01-23T19:11:27Z</time>
      </trkpt>
      <trkpt lat="61.176346" lon="12.964106">
        <ele>607.3</ele>
        <time>2018-01-23T19:11:29Z</time>
      </trkpt>
      <trkpt lat="61.176396" lon="12.964243">
        <ele>606.9</ele>
        <time>2018-01-23T19:11:31Z</time>
      </trkpt>
      <trkpt lat="61.176488" lon="12.9645">
        <ele>606.5</ele>
        <time>2018-01-23T19:11:35Z</time>
      </trkpt>
      <trkpt lat="61.17659" lon="12.964732">
        <ele>606.3</ele>
        <time>2018-01-23T19:11:39Z</time>
      </trkpt>
      <trkpt lat="61.176705" lon="12.964904">
        <ele>606.1</ele>
        <time>2018-01-23T19:11:43Z</time>
      </trkpt>
      <trkpt lat="61.176838" lon="12.965065">
        <ele>605.9</ele>
        <time>2018-01-23T19:11:48Z</time>
      </trkpt>
      <trkpt lat="61.176828" lon="12.965135">
        <ele>605.9</ele>
        <time>2018-01-23T19:11:50Z</time>
      </trkpt>
      <trkpt lat="61.176817" lon="12.965205">
        <ele>605.9</ele>
        <time>2018-01-23T19:11:51Z</time>
      </trkpt>
      <trkpt lat="61.176796" lon="12.965344">
        <ele>605.9</ele>
        <time>2018-01-23T19:11:52Z</time>
      </trkpt>
      <trkpt lat="61.176699" lon="12.965375">
        <ele>606.1</ele>
        <time>2018-01-23T19:11:55Z</time>
      </trkpt>
      <trkpt lat="61.176575" lon="12.965461">
        <ele>606.3</ele>
        <time>2018-01-23T19:11:59Z</time>
      </trkpt>
      <trkpt lat="61.176483" lon="12.965589">
        <ele>606.5</ele>
        <time>2018-01-23T19:12:02Z</time>
      </trkpt>
      <trkpt lat="61.176382" lon="12.965639">
        <ele>606.8</ele>
        <time>2018-01-23T19:12:05Z</time>
      </trkpt>
      <trkpt lat="61.17637" lon="12.965631">
        <ele>607.1</ele>
        <time>2018-01-23T19:12:06Z</time>
      </trkpt>
      <trkpt lat="61.176312" lon="12.965554">
        <ele>607.4</ele>
        <time>2018-01-23T19:12:09Z</time>
      </trkpt>
      <trkpt lat="61.176285" lon="12.965507">
        <ele>607.6</ele>
        <time>2018-01-23T19:12:10Z</time>
      </trkpt>
      <trkpt lat="61.176277" lon="12.96547">
        <ele>607.9</ele>
        <time>2018-01-23T19:12:11Z</time>
      </trkpt>
      <trkpt lat="61.17626" lon="12.965392">
        <ele>608.1</ele>
        <time>2018-01-23T19:12:13Z</time>
      </trkpt>
      <trkpt lat="61.176259" lon="12.965169">
        <ele>608.3</ele>
        <time>2018-01-23T19:12:17Z</time>
      </trkpt>
      <trkpt lat="61.176215" lon="12.96503">
        <ele>608.5</ele>
        <time>2018-01-23T19:12:20Z</time>
      </trkpt>
      <trkpt lat="61.176174" lon="12.964874">
        <ele>608.7</ele>
        <time>2018-01-23T19:12:23Z</time>
      </trkpt>
      <trkpt lat="61.176126" lon="12.964681">
        <ele>608.9</ele>
        <time>2018-01-23T19:12:27Z</time>
      </trkpt>
      <trkpt lat="61.176091" lon="12.964524">
        <ele>609.1</ele>
        <time>2018-01-23T19:12:30Z</time>
      </trkpt>
      <trkpt lat="61.176078" lon="12.964429">
        <ele>609.3</ele>
        <time>2018-01-23T19:12:32Z</time>
      </trkpt>
      <trkpt lat="61.176058" lon="12.964311">
        <ele>609.5</ele>
        <time>2018-01-23T19:12:34Z</time>
      </trkpt>
      <trkpt lat="61.176023" lon="12.964109">
        <ele>609.6</ele>
        <time>2018-01-23T19:12:38Z</time>
      </trkpt>
      <trkpt lat="61.175998" lon="12.963883">
        <ele>609.7</ele>
        <time>2018-01-23T19:12:42Z</time>
      </trkpt>
      <trkpt lat="61.175981" lon="12.963751">
        <ele>609.8</ele>
        <time>2018-01-23T19:12:45Z</time>
      </trkpt>
      <trkpt lat="61.175981" lon="12.963681">
        <ele>609.9</ele>
        <time>2018-01-23T19:12:46Z</time>
      </trkpt>
      <trkpt lat="61.176003" lon="12.963582">
        <ele>609.9</ele>
        <time>2018-01-23T19:12:48Z</time>
      </trkpt>
      <trkpt lat="61.176047" lon="12.963414">
        <ele>609.8</ele>
        <time>2018-01-23T19:12:52Z</time>
      </trkpt>
      <trkpt lat="61.176103" lon="12.963243">
        <ele>609.7</ele>
        <time>2018-01-23T19:12:56Z</time>
      </trkpt>
      <trkpt lat="61.176116" lon="12.963183">
        <ele>609.5</ele>
        <time>2018-01-23T19:12:57Z</time>
      </trkpt>
      <trkpt lat="61.176153" lon="12.963084">
        <ele>609.4</ele>
        <time>2018-01-23T19:13:00Z</time>
      </trkpt>
      <trkpt lat="61.1762" lon="12.962925">
        <ele>609.1</ele>
        <time>2018-01-23T19:13:03Z</time>
      </trkpt>
      <trkpt lat="61.176257" lon="12.962754">
        <ele>608.8</ele>
        <time>2018-01-23T19:13:07Z</time>
      </trkpt>
      <trkpt lat="61.176314" lon="12.962597">
        <ele>608.4</ele>
        <time>2018-01-23T19:13:11Z</time>
      </trkpt>
      <trkpt lat="61.176377" lon="12.962414">
        <ele>607.8</ele>
        <time>2018-01-23T19:13:15Z</time>
      </trkpt>
      <trkpt lat="61.176456" lon="12.962259">
        <ele>607.3</ele>
        <time>2018-01-23T19:13:19Z</time>
      </trkpt>
      <trkpt lat="61.176515" lon="12.962211">
        <ele>606.5</ele>
        <time>2018-01-23T19:13:21Z</time>
      </trkpt>
      <trkpt lat="61.176553" lon="12.962193">
        <ele>605.9</ele>
        <time>2018-01-23T19:13:22Z</time>
      </trkpt>
      <trkpt lat="61.176743" lon="12.962216">
        <ele>605.3</ele>
        <time>2018-01-23T19:13:27Z</time>
      </trkpt>
      <trkpt lat="61.176924" lon="12.962294">
        <ele>604.6</ele>
        <time>2018-01-23T19:13:31Z</time>
      </trkpt>
      <trkpt lat="61.176978" lon="12.962299">
        <ele>604.1</ele>
        <time>2018-01-23T19:13:32Z</time>
      </trkpt>
      <trkpt lat="61.177106" lon="12.962256">
        <ele>603.6</ele>
        <time>2018-01-23T19:13:35Z</time>
      </trkpt>
      <trkpt lat="61.177169" lon="12.961989">
        <ele>603.4</ele>
        <time>2018-01-23T19:13:39Z</time>
      </trkpt>
      <trkpt lat="61.177175" lon="12.961868">
        <ele>603.1</ele>
        <time>2018-01-23T19:13:40Z</time>
      </trkpt>
      <trkpt lat="61.177166" lon="12.961776">
        <ele>603.1</ele>
        <time>2018-01-23T19:13:41Z</time>
      </trkpt>
      <trkpt lat="61.177111" lon="12.961623">
        <ele>603.2</ele>
        <time>2018-01-23T19:13:44Z</time>
      </trkpt>
      <trkpt lat="61.177036" lon="12.96154">
        <ele>603.3</ele>
        <time>2018-01-23T19:13:47Z</time>
      </trkpt>
      <trkpt lat="61.176958" lon="12.96146">
        <ele>603.6</ele>
        <time>2018-01-23T19:13:51Z</time>
      </trkpt>
      <trkpt lat="61.176909" lon="12.961403">
        <ele>604</ele>
        <time>2018-01-23T19:13:54Z</time>
      </trkpt>
      <trkpt lat="61.176853" lon="12.961331">
        <ele>604.4</ele>
        <time>2018-01-23T19:13:57Z</time>
      </trkpt>
      <trkpt lat="61.176774" lon="12.961232">
        <ele>604.8</ele>
        <time>2018-01-23T19:14:01Z</time>
      </trkpt>
      <trkpt lat="61.176749" lon="12.961198">
        <ele>605.3</ele>
        <time>2018-01-23T19:14:02Z</time>
      </trkpt>
      <trkpt lat="61.176697" lon="12.961115">
        <ele>605.7</ele>
        <time>2018-01-23T19:14:05Z</time>
      </trkpt>
      <trkpt lat="61.17669" lon="12.961091">
        <ele>606.1</ele>
        <time>2018-01-23T19:14:06Z</time>
      </trkpt>
      <trkpt lat="61.17665" lon="12.961005">
        <ele>606.5</ele>
        <time>2018-01-23T19:14:09Z</time>
      </trkpt>
      <trkpt lat="61.17661" lon="12.960917">
        <ele>606.9</ele>
        <time>2018-01-23T19:14:12Z</time>
      </trkpt>
      <trkpt lat="61.176594" lon="12.960881">
        <ele>607.4</ele>
        <time>2018-01-23T19:14:13Z</time>
      </trkpt>
      <trkpt lat="61.176548" lon="12.960766">
        <ele>607.8</ele>
        <time>2018-01-23T19:14:17Z</time>
      </trkpt>
      <trkpt lat="61.176511" lon="12.960664">
        <ele>608.2</ele>
        <time>2018-01-23T19:14:20Z</time>
      </trkpt>
      <trkpt lat="61.176487" lon="12.960595">
        <ele>608.5</ele>
        <time>2018-01-23T19:14:22Z</time>
      </trkpt>
      <trkpt lat="61.17646" lon="12.960524">
        <ele>609</ele>
        <time>2018-01-23T19:14:24Z</time>
      </trkpt>
      <trkpt lat="61.176425" lon="12.960426">
        <ele>609.5</ele>
        <time>2018-01-23T19:14:27Z</time>
      </trkpt>
      <trkpt lat="61.176406" lon="12.960376">
        <ele>609.9</ele>
        <time>2018-01-23T19:14:29Z</time>
      </trkpt>
      <trkpt lat="61.176371" lon="12.960273">
        <ele>610.4</ele>
        <time>2018-01-23T19:14:32Z</time>
      </trkpt>
      <trkpt lat="61.176359" lon="12.960231">
        <ele>610.8</ele>
        <time>2018-01-23T19:14:33Z</time>
      </trkpt>
      <trkpt lat="61.176311" lon="12.960036">
        <ele>611.2</ele>
        <time>2018-01-23T19:14:37Z</time>
      </trkpt>
      <trkpt lat="61.176296" lon="12.959961">
        <ele>611.6</ele>
        <time>2018-01-23T19:14:39Z</time>
      </trkpt>
      <trkpt lat="61.176281" lon="12.959884">
        <ele>612</ele>
        <time>2018-01-23T19:14:41Z</time>
      </trkpt>
      <trkpt lat="61.176249" lon="12.959713">
        <ele>612.4</ele>
        <time>2018-01-23T19:14:45Z</time>
      </trkpt>
      <trkpt lat="61.17622" lon="12.95953">
        <ele>612.8</ele>
        <time>2018-01-23T19:14:49Z</time>
      </trkpt>
      <trkpt lat="61.176212" lon="12.959489">
        <ele>613.3</ele>
        <time>2018-01-23T19:14:50Z</time>
      </trkpt>
      <trkpt lat="61.176186" lon="12.959302">
        <ele>613.6</ele>
        <time>2018-01-23T19:14:54Z</time>
      </trkpt>
      <trkpt lat="61.176174" lon="12.959249">
        <ele>613.9</ele>
        <time>2018-01-23T19:14:55Z</time>
      </trkpt>
      <trkpt lat="61.176159" lon="12.959153">
        <ele>614.3</ele>
        <time>2018-01-23T19:14:57Z</time>
      </trkpt>
      <trkpt lat="61.176136" lon="12.959057">
        <ele>614.5</ele>
        <time>2018-01-23T19:14:59Z</time>
      </trkpt>
      <trkpt lat="61.176117" lon="12.958975">
        <ele>614.9</ele>
        <time>2018-01-23T19:15:01Z</time>
      </trkpt>
      <trkpt lat="61.1761" lon="12.958904">
        <ele>615.3</ele>
        <time>2018-01-23T19:15:03Z</time>
      </trkpt>
      <trkpt lat="61.176085" lon="12.958859">
        <ele>615.6</ele>
        <time>2018-01-23T19:15:04Z</time>
      </trkpt>
      <trkpt lat="61.176047" lon="12.958734">
        <ele>616</ele>
        <time>2018-01-23T19:15:07Z</time>
      </trkpt>
      <trkpt lat="61.176028" lon="12.958662">
        <ele>616.4</ele>
        <time>2018-01-23T19:15:09Z</time>
      </trkpt>
      <trkpt lat="61.175996" lon="12.958554">
        <ele>616.7</ele>
        <time>2018-01-23T19:15:12Z</time>
      </trkpt>
      <trkpt lat="61.175986" lon="12.958514">
        <ele>617.1</ele>
        <time>2018-01-23T19:15:13Z</time>
      </trkpt>
      <trkpt lat="61.175944" lon="12.958334">
        <ele>617.5</ele>
        <time>2018-01-23T19:15:18Z</time>
      </trkpt>
      <trkpt lat="61.175926" lon="12.958273">
        <ele>617.9</ele>
        <time>2018-01-23T19:15:20Z</time>
      </trkpt>
      <trkpt lat="61.175907" lon="12.958201">
        <ele>618.3</ele>
        <time>2018-01-23T19:15:22Z</time>
      </trkpt>
      <trkpt lat="61.175855" lon="12.958081">
        <ele>618.7</ele>
        <time>2018-01-23T19:15:26Z</time>
      </trkpt>
      <trkpt lat="61.17581" lon="12.957965">
        <ele>619.1</ele>
        <time>2018-01-23T19:15:29Z</time>
      </trkpt>
      <trkpt lat="61.175785" lon="12.957902">
        <ele>619.5</ele>
        <time>2018-01-23T19:15:31Z</time>
      </trkpt>
      <trkpt lat="61.175764" lon="12.957844">
        <ele>619.8</ele>
        <time>2018-01-23T19:15:33Z</time>
      </trkpt>
      <trkpt lat="61.175725" lon="12.957754">
        <ele>620.2</ele>
        <time>2018-01-23T19:15:36Z</time>
      </trkpt>
      <trkpt lat="61.175662" lon="12.957627">
        <ele>620.6</ele>
        <time>2018-01-23T19:15:40Z</time>
      </trkpt>
      <trkpt lat="61.17565" lon="12.957608">
        <ele>621</ele>
        <time>2018-01-23T19:15:41Z</time>
      </trkpt>
      <trkpt lat="61.175611" lon="12.957536">
        <ele>621.5</ele>
        <time>2018-01-23T19:15:44Z</time>
      </trkpt>
      <trkpt lat="61.17557" lon="12.957465">
        <ele>621.9</ele>
        <time>2018-01-23T19:15:47Z</time>
      </trkpt>
      <trkpt lat="61.175555" lon="12.957436">
        <ele>622.3</ele>
        <time>2018-01-23T19:15:48Z</time>
      </trkpt>
      <trkpt lat="61.175496" lon="12.957345">
        <ele>622.7</ele>
        <time>2018-01-23T19:15:52Z</time>
      </trkpt>
      <trkpt lat="61.175437" lon="12.957238">
        <ele>623.2</ele>
        <time>2018-01-23T19:15:56Z</time>
      </trkpt>
      <trkpt lat="61.175409" lon="12.957184">
        <ele>623.7</ele>
        <time>2018-01-23T19:15:58Z</time>
      </trkpt>
      <trkpt lat="61.175383" lon="12.957138">
        <ele>624.4</ele>
        <time>2018-01-23T19:16:00Z</time>
      </trkpt>
      <trkpt lat="61.175349" lon="12.957088">
        <ele>624.9</ele>
        <time>2018-01-23T19:16:02Z</time>
      </trkpt>
      <trkpt lat="61.175314" lon="12.957021">
        <ele>625.5</ele>
        <time>2018-01-23T19:16:04Z</time>
      </trkpt>
      <trkpt lat="61.175219" lon="12.956876">
        <ele>626.1</ele>
        <time>2018-01-23T19:16:09Z</time>
      </trkpt>
      <trkpt lat="61.175151" lon="12.956771">
        <ele>626.7</ele>
        <time>2018-01-23T19:16:13Z</time>
      </trkpt>
      <trkpt lat="61.175096" lon="12.956698">
        <ele>627.3</ele>
        <time>2018-01-23T19:16:16Z</time>
      </trkpt>
      <trkpt lat="61.175076" lon="12.956672">
        <ele>627.9</ele>
        <time>2018-01-23T19:16:17Z</time>
      </trkpt>
      <trkpt lat="61.175014" lon="12.956571">
        <ele>628.5</ele>
        <time>2018-01-23T19:16:21Z</time>
      </trkpt>
      <trkpt lat="61.174965" lon="12.956452">
        <ele>629.1</ele>
        <time>2018-01-23T19:16:24Z</time>
      </trkpt>
      <trkpt lat="61.174948" lon="12.956399">
        <ele>629.5</ele>
        <time>2018-01-23T19:16:26Z</time>
      </trkpt>
      <trkpt lat="61.174926" lon="12.956342">
        <ele>630</ele>
        <time>2018-01-23T19:16:28Z</time>
      </trkpt>
      <trkpt lat="61.174891" lon="12.956233">
        <ele>630.4</ele>
        <time>2018-01-23T19:16:32Z</time>
      </trkpt>
      <trkpt lat="61.174878" lon="12.956203">
        <ele>630.7</ele>
        <time>2018-01-23T19:16:33Z</time>
      </trkpt>
      <trkpt lat="61.174866" lon="12.956174">
        <ele>631</ele>
        <time>2018-01-23T19:16:34Z</time>
      </trkpt>
      <trkpt lat="61.174863" lon="12.956158">
        <ele>631.4</ele>
        <time>2018-01-23T19:16:35Z</time>
      </trkpt>
      <trkpt lat="61.174843" lon="12.956107">
        <ele>631.6</ele>
        <time>2018-01-23T19:16:37Z</time>
      </trkpt>
      <trkpt lat="61.174827" lon="12.956055">
        <ele>632</ele>
        <time>2018-01-23T19:16:39Z</time>
      </trkpt>
      <trkpt lat="61.174815" lon="12.95602">
        <ele>632.3</ele>
        <time>2018-01-23T19:16:40Z</time>
      </trkpt>
      <trkpt lat="61.174808" lon="12.956001">
        <ele>632.5</ele>
        <time>2018-01-23T19:16:41Z</time>
      </trkpt>
      <trkpt lat="61.174778" lon="12.955922">
        <ele>632.8</ele>
        <time>2018-01-23T19:16:44Z</time>
      </trkpt>
      <trkpt lat="61.174769" lon="12.955896">
        <ele>633.1</ele>
        <time>2018-01-23T19:16:45Z</time>
      </trkpt>
      <trkpt lat="61.174734" lon="12.955804">
        <ele>633.4</ele>
        <time>2018-01-23T19:16:49Z</time>
      </trkpt>
      <trkpt lat="61.174727" lon="12.955781">
        <ele>633.6</ele>
        <time>2018-01-23T19:16:50Z</time>
      </trkpt>
      <trkpt lat="61.174725" lon="12.955767">
        <ele>633.9</ele>
        <time>2018-01-23T19:16:51Z</time>
      </trkpt>
      <trkpt lat="61.1747" lon="12.955696">
        <ele>634.3</ele>
        <time>2018-01-23T19:16:54Z</time>
      </trkpt>
      <trkpt lat="61.174692" lon="12.955666">
        <ele>634.5</ele>
        <time>2018-01-23T19:16:55Z</time>
      </trkpt>
      <trkpt lat="61.174684" lon="12.955634">
        <ele>634.9</ele>
        <time>2018-01-23T19:16:56Z</time>
      </trkpt>
      <trkpt lat="61.174666" lon="12.955578">
        <ele>635.3</ele>
        <time>2018-01-23T19:16:58Z</time>
      </trkpt>
      <trkpt lat="61.174637" lon="12.955499">
        <ele>635.6</ele>
        <time>2018-01-23T19:17:01Z</time>
      </trkpt>
      <trkpt lat="61.174624" lon="12.955468">
        <ele>636</ele>
        <time>2018-01-23T19:17:02Z</time>
      </trkpt>
      <trkpt lat="61.174611" lon="12.955426">
        <ele>636.4</ele>
        <time>2018-01-23T19:17:04Z</time>
      </trkpt>
      <trkpt lat="61.174588" lon="12.955367">
        <ele>636.7</ele>
        <time>2018-01-23T19:17:06Z</time>
      </trkpt>
      <trkpt lat="61.174538" lon="12.955264">
        <ele>637.1</ele>
        <time>2018-01-23T19:17:10Z</time>
      </trkpt>
      <trkpt lat="61.174533" lon="12.955247">
        <ele>637.5</ele>
        <time>2018-01-23T19:17:11Z</time>
      </trkpt>
      <trkpt lat="61.174531" lon="12.955232">
        <ele>637.8</ele>
        <time>2018-01-23T19:17:12Z</time>
      </trkpt>
      <trkpt lat="61.174518" lon="12.955211">
        <ele>638.1</ele>
        <time>2018-01-23T19:17:13Z</time>
      </trkpt>
      <trkpt lat="61.174489" lon="12.955164">
        <ele>638.4</ele>
        <time>2018-01-23T19:17:16Z</time>
      </trkpt>
      <trkpt lat="61.174479" lon="12.955147">
        <ele>638.6</ele>
        <time>2018-01-23T19:17:17Z</time>
      </trkpt>
      <trkpt lat="61.174454" lon="12.955087">
        <ele>639</ele>
        <time>2018-01-23T19:17:19Z</time>
      </trkpt>
      <trkpt lat="61.174446" lon="12.955068">
        <ele>639.3</ele>
        <time>2018-01-23T19:17:20Z</time>
      </trkpt>
      <trkpt lat="61.174417" lon="12.954997">
        <ele>639.5</ele>
        <time>2018-01-23T19:17:23Z</time>
      </trkpt>
      <trkpt lat="61.174394" lon="12.954954">
        <ele>639.8</ele>
        <time>2018-01-23T19:17:25Z</time>
      </trkpt>
      <trkpt lat="61.174389" lon="12.954933">
        <ele>640.1</ele>
        <time>2018-01-23T19:17:26Z</time>
      </trkpt>
      <trkpt lat="61.174364" lon="12.954881">
        <ele>640.4</ele>
        <time>2018-01-23T19:17:29Z</time>
      </trkpt>
      <trkpt lat="61.174324" lon="12.954807">
        <ele>640.6</ele>
        <time>2018-01-23T19:17:33Z</time>
      </trkpt>
      <trkpt lat="61.174318" lon="12.954786">
        <ele>640.9</ele>
        <time>2018-01-23T19:17:34Z</time>
      </trkpt>
      <trkpt lat="61.174301" lon="12.95477">
        <ele>641.2</ele>
        <time>2018-01-23T19:17:35Z</time>
      </trkpt>
      <trkpt lat="61.174297" lon="12.954757">
        <ele>641.5</ele>
        <time>2018-01-23T19:17:36Z</time>
      </trkpt>
      <trkpt lat="61.174278" lon="12.954714">
        <ele>641.7</ele>
        <time>2018-01-23T19:17:38Z</time>
      </trkpt>
      <trkpt lat="61.174266" lon="12.954692">
        <ele>642</ele>
        <time>2018-01-23T19:17:40Z</time>
      </trkpt>
      <trkpt lat="61.174251" lon="12.954654">
        <ele>642.3</ele>
        <time>2018-01-23T19:17:42Z</time>
      </trkpt>
      <trkpt lat="61.174254" lon="12.954651">
        <ele>642.5</ele>
        <time>2018-01-23T19:17:43Z</time>
      </trkpt>
      <trkpt lat="61.174214" lon="12.954571">
        <ele>642.8</ele>
        <time>2018-01-23T19:17:47Z</time>
      </trkpt>
      <trkpt lat="61.174192" lon="12.954532">
        <ele>643.1</ele>
        <time>2018-01-23T19:17:49Z</time>
      </trkpt>
      <trkpt lat="61.174188" lon="12.954518">
        <ele>643.4</ele>
        <time>2018-01-23T19:17:50Z</time>
      </trkpt>
      <trkpt lat="61.174179" lon="12.954498">
        <ele>643.6</ele>
        <time>2018-01-23T19:17:51Z</time>
      </trkpt>
      <trkpt lat="61.174148" lon="12.954423">
        <ele>643.9</ele>
        <time>2018-01-23T19:17:55Z</time>
      </trkpt>
      <trkpt lat="61.174142" lon="12.954404">
        <ele>644.2</ele>
        <time>2018-01-23T19:17:56Z</time>
      </trkpt>
      <trkpt lat="61.174116" lon="12.954342">
        <ele>644.4</ele>
        <time>2018-01-23T19:17:59Z</time>
      </trkpt>
      <trkpt lat="61.174123" lon="12.954323">
        <ele>644.6</ele>
        <time>2018-01-23T19:18:01Z</time>
      </trkpt>
      <trkpt lat="61.174117" lon="12.954333">
        <ele>645</ele>
        <time>2018-01-23T19:18:02Z</time>
      </trkpt>
      <trkpt lat="61.174101" lon="12.954335">
        <ele>645.3</ele>
        <time>2018-01-23T19:18:54Z</time>
      </trkpt>
      <trkpt lat="61.1741" lon="12.954321">
        <ele>645.5</ele>
        <time>2018-01-23T19:18:55Z</time>
      </trkpt>
      <trkpt lat="61.174096" lon="12.954323">
        <ele>645.8</ele>
        <time>2018-01-23T19:18:56Z</time>
      </trkpt>
      <trkpt lat="61.174058" lon="12.9542">
        <ele>646.1</ele>
        <time>2018-01-23T19:19:01Z</time>
      </trkpt>
      <trkpt lat="61.173996" lon="12.95405">
        <ele>646.4</ele>
        <time>2018-01-23T19:19:07Z</time>
      </trkpt>
      <trkpt lat="61.173983" lon="12.954012">
        <ele>646.7</ele>
        <time>2018-01-23T19:19:08Z</time>
      </trkpt>
      <trkpt lat="61.17397" lon="12.953989">
        <ele>647.1</ele>
        <time>2018-01-23T19:19:09Z</time>
      </trkpt>
      <trkpt lat="61.173937" lon="12.95392">
        <ele>647.5</ele>
        <time>2018-01-23T19:19:12Z</time>
      </trkpt>
      <trkpt lat="61.173925" lon="12.953896">
        <ele>647.9</ele>
        <time>2018-01-23T19:19:13Z</time>
      </trkpt>
      <trkpt lat="61.173897" lon="12.953848">
        <ele>648.4</ele>
        <time>2018-01-23T19:19:15Z</time>
      </trkpt>
      <trkpt lat="61.173865" lon="12.953764">
        <ele>648.7</ele>
        <time>2018-01-23T19:19:18Z</time>
      </trkpt>
      <trkpt lat="61.173856" lon="12.953746">
        <ele>649.2</ele>
        <time>2018-01-23T19:19:19Z</time>
      </trkpt>
      <trkpt lat="61.17385" lon="12.953724">
        <ele>649.6</ele>
        <time>2018-01-23T19:19:20Z</time>
      </trkpt>
      <trkpt lat="61.173818" lon="12.953671">
        <ele>650.2</ele>
        <time>2018-01-23T19:19:23Z</time>
      </trkpt>
      <trkpt lat="61.173804" lon="12.95365">
        <ele>650.6</ele>
        <time>2018-01-23T19:19:24Z</time>
      </trkpt>
      <trkpt lat="61.173775" lon="12.953599">
        <ele>651.1</ele>
        <time>2018-01-23T19:19:27Z</time>
      </trkpt>
      <trkpt lat="61.173754" lon="12.953563">
        <ele>651.5</ele>
        <time>2018-01-23T19:19:29Z</time>
      </trkpt>
      <trkpt lat="61.173751" lon="12.95355">
        <ele>651.9</ele>
        <time>2018-01-23T19:19:30Z</time>
      </trkpt>
      <trkpt lat="61.173715" lon="12.9535">
        <ele>652.4</ele>
        <time>2018-01-23T19:19:32Z</time>
      </trkpt>
      <trkpt lat="61.173711" lon="12.953488">
        <ele>652.7</ele>
        <time>2018-01-23T19:19:33Z</time>
      </trkpt>
      <trkpt lat="61.173698" lon="12.953466">
        <ele>653.1</ele>
        <time>2018-01-23T19:19:34Z</time>
      </trkpt>
      <trkpt lat="61.173682" lon="12.95344">
        <ele>653.5</ele>
        <time>2018-01-23T19:19:35Z</time>
      </trkpt>
      <trkpt lat="61.17367" lon="12.953417">
        <ele>653.8</ele>
        <time>2018-01-23T19:19:37Z</time>
      </trkpt>
      <trkpt lat="61.173656" lon="12.9534">
        <ele>654.2</ele>
        <time>2018-01-23T19:19:38Z</time>
      </trkpt>
      <trkpt lat="61.173656" lon="12.953395">
        <ele>654.5</ele>
        <time>2018-01-23T19:19:39Z</time>
      </trkpt>
      <trkpt lat="61.173631" lon="12.953351">
        <ele>655</ele>
        <time>2018-01-23T19:19:42Z</time>
      </trkpt>
      <trkpt lat="61.173625" lon="12.953331">
        <ele>655.5</ele>
        <time>2018-01-23T19:19:43Z</time>
      </trkpt>
      <trkpt lat="61.173579" lon="12.953264">
        <ele>656.1</ele>
        <time>2018-01-23T19:19:47Z</time>
      </trkpt>
      <trkpt lat="61.173569" lon="12.95325">
        <ele>656.6</ele>
        <time>2018-01-23T19:19:48Z</time>
      </trkpt>
      <trkpt lat="61.173549" lon="12.953222">
        <ele>657.3</ele>
        <time>2018-01-23T19:19:50Z</time>
      </trkpt>
      <trkpt lat="61.173523" lon="12.953178">
        <ele>658.1</ele>
        <time>2018-01-23T19:19:53Z</time>
      </trkpt>
      <trkpt lat="61.173491" lon="12.953134">
        <ele>658.8</ele>
        <time>2018-01-23T19:19:56Z</time>
      </trkpt>
      <trkpt lat="61.173483" lon="12.953119">
        <ele>659.6</ele>
        <time>2018-01-23T19:19:57Z</time>
      </trkpt>
      <trkpt lat="61.173453" lon="12.953086">
        <ele>660.5</ele>
        <time>2018-01-23T19:19:59Z</time>
      </trkpt>
      <trkpt lat="61.173408" lon="12.953017">
        <ele>661.3</ele>
        <time>2018-01-23T19:20:02Z</time>
      </trkpt>
      <trkpt lat="61.17336" lon="12.952945">
        <ele>662.1</ele>
        <time>2018-01-23T19:20:08Z</time>
      </trkpt>
      <trkpt lat="61.173348" lon="12.952927">
        <ele>662.8</ele>
        <time>2018-01-23T19:20:10Z</time>
      </trkpt>
      <trkpt lat="61.173316" lon="12.952867">
        <ele>663.5</ele>
        <time>2018-01-23T19:20:14Z</time>
      </trkpt>
      <trkpt lat="61.173294" lon="12.95285">
        <ele>664.4</ele>
        <time>2018-01-23T19:20:17Z</time>
      </trkpt>
      <trkpt lat="61.173292" lon="12.952841">
        <ele>665.1</ele>
        <time>2018-01-23T19:20:18Z</time>
      </trkpt>
      <trkpt lat="61.173265" lon="12.952807">
        <ele>665.8</ele>
        <time>2018-01-23T19:20:21Z</time>
      </trkpt>
      <trkpt lat="61.173259" lon="12.952796">
        <ele>666.4</ele>
        <time>2018-01-23T19:20:22Z</time>
      </trkpt>
      <trkpt lat="61.173211" lon="12.952724">
        <ele>667</ele>
        <time>2018-01-23T19:20:27Z</time>
      </trkpt>
      <trkpt lat="61.173178" lon="12.952674">
        <ele>667.5</ele>
        <time>2018-01-23T19:20:31Z</time>
      </trkpt>
      <trkpt lat="61.173171" lon="12.952663">
        <ele>668.1</ele>
        <time>2018-01-23T19:20:32Z</time>
      </trkpt>
      <trkpt lat="61.173128" lon="12.952585">
        <ele>668.6</ele>
        <time>2018-01-23T19:20:37Z</time>
      </trkpt>
      <trkpt lat="61.173117" lon="12.952555">
        <ele>669.2</ele>
        <time>2018-01-23T19:20:38Z</time>
      </trkpt>
      <trkpt lat="61.173096" lon="12.952476">
        <ele>669.7</ele>
        <time>2018-01-23T19:20:41Z</time>
      </trkpt>
      <trkpt lat="61.173092" lon="12.952415">
        <ele>670.2</ele>
        <time>2018-01-23T19:20:43Z</time>
      </trkpt>
      <trkpt lat="61.173082" lon="12.952324">
        <ele>670.6</ele>
        <time>2018-01-23T19:20:46Z</time>
      </trkpt>
      <trkpt lat="61.173076" lon="12.95226">
        <ele>671.2</ele>
        <time>2018-01-23T19:20:48Z</time>
      </trkpt>
      <trkpt lat="61.17306" lon="12.952173">
        <ele>671.7</ele>
        <time>2018-01-23T19:20:51Z</time>
      </trkpt>
      <trkpt lat="61.173047" lon="12.952109">
        <ele>672.3</ele>
        <time>2018-01-23T19:20:53Z</time>
      </trkpt>
      <trkpt lat="61.173045" lon="12.952088">
        <ele>672.7</ele>
        <time>2018-01-23T19:20:54Z</time>
      </trkpt>
      <trkpt lat="61.17303" lon="12.951969">
        <ele>673.3</ele>
        <time>2018-01-23T19:20:57Z</time>
      </trkpt>
      <trkpt lat="61.172999" lon="12.951803">
        <ele>673.7</ele>
        <time>2018-01-23T19:21:02Z</time>
      </trkpt>
      <trkpt lat="61.172984" lon="12.951725">
        <ele>674.2</ele>
        <time>2018-01-23T19:21:04Z</time>
      </trkpt>
      <trkpt lat="61.172972" lon="12.951671">
        <ele>674.6</ele>
        <time>2018-01-23T19:21:06Z</time>
      </trkpt>
      <trkpt lat="61.172965" lon="12.951608">
        <ele>675.2</ele>
        <time>2018-01-23T19:21:08Z</time>
      </trkpt>
      <trkpt lat="61.172958" lon="12.951575">
        <ele>675.7</ele>
        <time>2018-01-23T19:21:09Z</time>
      </trkpt>
      <trkpt lat="61.172936" lon="12.951459">
        <ele>676.3</ele>
        <time>2018-01-23T19:21:13Z</time>
      </trkpt>
      <trkpt lat="61.172932" lon="12.951432">
        <ele>676.7</ele>
        <time>2018-01-23T19:21:14Z</time>
      </trkpt>
      <trkpt lat="61.17291" lon="12.951323">
        <ele>677.2</ele>
        <time>2018-01-23T19:21:18Z</time>
      </trkpt>
      <trkpt lat="61.172902" lon="12.951287">
        <ele>677.6</ele>
        <time>2018-01-23T19:21:19Z</time>
      </trkpt>
      <trkpt lat="61.172893" lon="12.951232">
        <ele>678.1</ele>
        <time>2018-01-23T19:21:21Z</time>
      </trkpt>
      <trkpt lat="61.17288" lon="12.951164">
        <ele>678.5</ele>
        <time>2018-01-23T19:21:23Z</time>
      </trkpt>
      <trkpt lat="61.172868" lon="12.951067">
        <ele>679.1</ele>
        <time>2018-01-23T19:21:26Z</time>
      </trkpt>
      <trkpt lat="61.172863" lon="12.951015">
        <ele>679.6</ele>
        <time>2018-01-23T19:21:28Z</time>
      </trkpt>
      <trkpt lat="61.172851" lon="12.950924">
        <ele>680.2</ele>
        <time>2018-01-23T19:21:32Z</time>
      </trkpt>
      <trkpt lat="61.172837" lon="12.95082">
        <ele>680.7</ele>
        <time>2018-01-23T19:21:36Z</time>
      </trkpt>
      <trkpt lat="61.172828" lon="12.950776">
        <ele>681.4</ele>
        <time>2018-01-23T19:21:37Z</time>
      </trkpt>
      <trkpt lat="61.172806" lon="12.950698">
        <ele>682.1</ele>
        <time>2018-01-23T19:21:40Z</time>
      </trkpt>
      <trkpt lat="61.172808" lon="12.950689">
        <ele>682.8</ele>
        <time>2018-01-23T19:21:41Z</time>
      </trkpt>
      <trkpt lat="61.172801" lon="12.950664">
        <ele>683.5</ele>
        <time>2018-01-23T19:21:42Z</time>
      </trkpt>
      <trkpt lat="61.172787" lon="12.950585">
        <ele>684.4</ele>
        <time>2018-01-23T19:21:46Z</time>
      </trkpt>
      <trkpt lat="61.172757" lon="12.950458">
        <ele>685.3</ele>
        <time>2018-01-23T19:21:50Z</time>
      </trkpt>
      <trkpt lat="61.172738" lon="12.950359">
        <ele>686.2</ele>
        <time>2018-01-23T19:21:53Z</time>
      </trkpt>
      <trkpt lat="61.172725" lon="12.95031">
        <ele>687.1</ele>
        <time>2018-01-23T19:21:56Z</time>
      </trkpt>
      <trkpt lat="61.172723" lon="12.950284">
        <ele>688</ele>
        <time>2018-01-23T19:21:57Z</time>
      </trkpt>
      <trkpt lat="61.172708" lon="12.950205">
        <ele>688.8</ele>
        <time>2018-01-23T19:22:00Z</time>
      </trkpt>
      <trkpt lat="61.172681" lon="12.950107">
        <ele>689.7</ele>
        <time>2018-01-23T19:22:04Z</time>
      </trkpt>
      <trkpt lat="61.172659" lon="12.95003">
        <ele>690.5</ele>
        <time>2018-01-23T19:22:07Z</time>
      </trkpt>
      <trkpt lat="61.172651" lon="12.949998">
        <ele>691.3</ele>
        <time>2018-01-23T19:22:08Z</time>
      </trkpt>
      <trkpt lat="61.172644" lon="12.949975">
        <ele>692</ele>
        <time>2018-01-23T19:22:10Z</time>
      </trkpt>
      <trkpt lat="61.172641" lon="12.949931">
        <ele>692.7</ele>
        <time>2018-01-23T19:22:12Z</time>
      </trkpt>
      <trkpt lat="61.17262" lon="12.949844">
        <ele>693.4</ele>
        <time>2018-01-23T19:22:16Z</time>
      </trkpt>
      <trkpt lat="61.172613" lon="12.949823">
        <ele>694</ele>
        <time>2018-01-23T19:22:17Z</time>
      </trkpt>
      <trkpt lat="61.172599" lon="12.949773">
        <ele>694.5</ele>
        <time>2018-01-23T19:22:19Z</time>
      </trkpt>
      <trkpt lat="61.172592" lon="12.949741">
        <ele>695.1</ele>
        <time>2018-01-23T19:22:21Z</time>
      </trkpt>
      <trkpt lat="61.17258" lon="12.949706">
        <ele>695.7</ele>
        <time>2018-01-23T19:22:22Z</time>
      </trkpt>
      <trkpt lat="61.172568" lon="12.949662">
        <ele>696.5</ele>
        <time>2018-01-23T19:22:24Z</time>
      </trkpt>
      <trkpt lat="61.172564" lon="12.949634">
        <ele>697</ele>
        <time>2018-01-23T19:22:25Z</time>
      </trkpt>
      <trkpt lat="61.172556" lon="12.949605">
        <ele>697.6</ele>
        <time>2018-01-23T19:22:26Z</time>
      </trkpt>
      <trkpt lat="61.172543" lon="12.949503">
        <ele>698.2</ele>
        <time>2018-01-23T19:22:30Z</time>
      </trkpt>
      <trkpt lat="61.172535" lon="12.949465">
        <ele>698.8</ele>
        <time>2018-01-23T19:22:32Z</time>
      </trkpt>
      <trkpt lat="61.172525" lon="12.949416">
        <ele>699.5</ele>
        <time>2018-01-23T19:22:34Z</time>
      </trkpt>
      <trkpt lat="61.172519" lon="12.949384">
        <ele>700.1</ele>
        <time>2018-01-23T19:22:36Z</time>
      </trkpt>
      <trkpt lat="61.172502" lon="12.949318">
        <ele>700.7</ele>
        <time>2018-01-23T19:22:39Z</time>
      </trkpt>
      <trkpt lat="61.172492" lon="12.949268">
        <ele>701.5</ele>
        <time>2018-01-23T19:22:42Z</time>
      </trkpt>
      <trkpt lat="61.172487" lon="12.949244">
        <ele>702.2</ele>
        <time>2018-01-23T19:22:43Z</time>
      </trkpt>
      <trkpt lat="61.172483" lon="12.94911">
        <ele>702.8</ele>
        <time>2018-01-23T19:22:46Z</time>
      </trkpt>
      <trkpt lat="61.172485" lon="12.949054">
        <ele>703.5</ele>
        <time>2018-01-23T19:22:47Z</time>
      </trkpt>
      <trkpt lat="61.17248" lon="12.948917">
        <ele>704.1</ele>
        <time>2018-01-23T19:22:50Z</time>
      </trkpt>
      <trkpt lat="61.172478" lon="12.948863">
        <ele>704.6</ele>
        <time>2018-01-23T19:22:51Z</time>
      </trkpt>
      <trkpt lat="61.172472" lon="12.948713">
        <ele>705.2</ele>
        <time>2018-01-23T19:22:54Z</time>
      </trkpt>
      <trkpt lat="61.172467" lon="12.948671">
        <ele>705.7</ele>
        <time>2018-01-23T19:22:55Z</time>
      </trkpt>
      <trkpt lat="61.172451" lon="12.948513">
        <ele>706.2</ele>
        <time>2018-01-23T19:22:59Z</time>
      </trkpt>
      <trkpt lat="61.172454" lon="12.948482">
        <ele>706.7</ele>
        <time>2018-01-23T19:23:00Z</time>
      </trkpt>
      <trkpt lat="61.172452" lon="12.948351">
        <ele>707.2</ele>
        <time>2018-01-23T19:23:03Z</time>
      </trkpt>
      <trkpt lat="61.172452" lon="12.948161">
        <ele>707.6</ele>
        <time>2018-01-23T19:23:07Z</time>
      </trkpt>
      <trkpt lat="61.172433" lon="12.948097">
        <ele>708.1</ele>
        <time>2018-01-23T19:23:10Z</time>
      </trkpt>
      <trkpt lat="61.172426" lon="12.948099">
        <ele>708.6</ele>
        <time>2018-01-23T19:23:11Z</time>
      </trkpt>
      <trkpt lat="61.172399" lon="12.948081">
        <ele>709.2</ele>
        <time>2018-01-23T19:23:14Z</time>
      </trkpt>
      <trkpt lat="61.172387" lon="12.948075">
        <ele>709.7</ele>
        <time>2018-01-23T19:23:15Z</time>
      </trkpt>
      <trkpt lat="61.172371" lon="12.948068">
        <ele>710.4</ele>
        <time>2018-01-23T19:23:16Z</time>
      </trkpt>
      <trkpt lat="61.172322" lon="12.948069">
        <ele>711.1</ele>
        <time>2018-01-23T19:23:21Z</time>
      </trkpt>
      <trkpt lat="61.1723" lon="12.948065">
        <ele>711.7</ele>
        <time>2018-01-23T19:23:24Z</time>
      </trkpt>
      <trkpt lat="61.172257" lon="12.948058">
        <ele>712.5</ele>
        <time>2018-01-23T19:23:28Z</time>
      </trkpt>
      <trkpt lat="61.172249" lon="12.948054">
        <ele>713.2</ele>
        <time>2018-01-23T19:23:29Z</time>
      </trkpt>
      <trkpt lat="61.172215" lon="12.948041">
        <ele>714</ele>
        <time>2018-01-23T19:23:33Z</time>
      </trkpt>
      <trkpt lat="61.172208" lon="12.948035">
        <ele>714.7</ele>
        <time>2018-01-23T19:23:34Z</time>
      </trkpt>
      <trkpt lat="61.17219" lon="12.948009">
        <ele>715.4</ele>
        <time>2018-01-23T19:23:37Z</time>
      </trkpt>
      <trkpt lat="61.172168" lon="12.947982">
        <ele>715.9</ele>
        <time>2018-01-23T19:23:39Z</time>
      </trkpt>
      <trkpt lat="61.17215" lon="12.947962">
        <ele>716.4</ele>
        <time>2018-01-23T19:23:40Z</time>
      </trkpt>
      <trkpt lat="61.172121" lon="12.947935">
        <ele>716.8</ele>
        <time>2018-01-23T19:23:44Z</time>
      </trkpt>
      <trkpt lat="61.172116" lon="12.947931">
        <ele>717.3</ele>
        <time>2018-01-23T19:23:45Z</time>
      </trkpt>
      <trkpt lat="61.172114" lon="12.947924">
        <ele>717.7</ele>
        <time>2018-01-23T19:23:46Z</time>
      </trkpt>
      <trkpt lat="61.172109" lon="12.947917">
        <ele>718.3</ele>
        <time>2018-01-23T19:23:47Z</time>
      </trkpt>
      <trkpt lat="61.172103" lon="12.947917">
        <ele>718.8</ele>
        <time>2018-01-23T19:23:48Z</time>
      </trkpt>
      <trkpt lat="61.172094" lon="12.947905">
        <ele>719.3</ele>
        <time>2018-01-23T19:23:50Z</time>
      </trkpt>
      <trkpt lat="61.172065" lon="12.947893">
        <ele>719.6</ele>
        <time>2018-01-23T19:23:55Z</time>
      </trkpt>
      <trkpt lat="61.172056" lon="12.947889">
        <ele>720.1</ele>
        <time>2018-01-23T19:23:56Z</time>
      </trkpt>
      <trkpt lat="61.172013" lon="12.947849">
        <ele>720.5</ele>
        <time>2018-01-23T19:24:02Z</time>
      </trkpt>
      <trkpt lat="61.171992" lon="12.94783">
        <ele>721</ele>
        <time>2018-01-23T19:24:06Z</time>
      </trkpt>
      <trkpt lat="61.171978" lon="12.947818">
        <ele>721.5</ele>
        <time>2018-01-23T19:24:08Z</time>
      </trkpt>
      <trkpt lat="61.171972" lon="12.947818">
        <ele>722.1</ele>
        <time>2018-01-23T19:24:09Z</time>
      </trkpt>
      <trkpt lat="61.171958" lon="12.947809">
        <ele>722.5</ele>
        <time>2018-01-23T19:24:12Z</time>
      </trkpt>
      <trkpt lat="61.17195" lon="12.947808">
        <ele>723</ele>
        <time>2018-01-23T19:24:14Z</time>
      </trkpt>
      <trkpt lat="61.171934" lon="12.9478">
        <ele>723.4</ele>
        <time>2018-01-23T19:24:16Z</time>
      </trkpt>
      <trkpt lat="61.171906" lon="12.947785">
        <ele>723.7</ele>
        <time>2018-01-23T19:24:20Z</time>
      </trkpt>
      <trkpt lat="61.171909" lon="12.947778">
        <ele>724.1</ele>
        <time>2018-01-23T19:24:21Z</time>
      </trkpt>
      <trkpt lat="61.1719" lon="12.947771">
        <ele>724.5</ele>
        <time>2018-01-23T19:24:24Z</time>
      </trkpt>
      <trkpt lat="61.17189" lon="12.947764">
        <ele>724.8</ele>
        <time>2018-01-23T19:24:27Z</time>
      </trkpt>
      <trkpt lat="61.171882" lon="12.947758">
        <ele>725.2</ele>
        <time>2018-01-23T19:24:28Z</time>
      </trkpt>
      <trkpt lat="61.171855" lon="12.947737">
        <ele>725.6</ele>
        <time>2018-01-23T19:24:32Z</time>
      </trkpt>
      <trkpt lat="61.171848" lon="12.947733">
        <ele>726</ele>
        <time>2018-01-23T19:24:33Z</time>
      </trkpt>
      <trkpt lat="61.171832" lon="12.947725">
        <ele>726.5</ele>
        <time>2018-01-23T19:24:35Z</time>
      </trkpt>
      <trkpt lat="61.171817" lon="12.947718">
        <ele>726.9</ele>
        <time>2018-01-23T19:24:38Z</time>
      </trkpt>
      <trkpt lat="61.171809" lon="12.947711">
        <ele>727.4</ele>
        <time>2018-01-23T19:24:39Z</time>
      </trkpt>
      <trkpt lat="61.171779" lon="12.947706">
        <ele>727.9</ele>
        <time>2018-01-23T19:24:43Z</time>
      </trkpt>
      <trkpt lat="61.171771" lon="12.947699">
        <ele>728.4</ele>
        <time>2018-01-23T19:24:44Z</time>
      </trkpt>
      <trkpt lat="61.171749" lon="12.9477">
        <ele>728.8</ele>
        <time>2018-01-23T19:24:48Z</time>
      </trkpt>
      <trkpt lat="61.171734" lon="12.947702">
        <ele>729.4</ele>
        <time>2018-01-23T19:24:50Z</time>
      </trkpt>
      <trkpt lat="61.171698" lon="12.947695">
        <ele>729.9</ele>
        <time>2018-01-23T19:24:55Z</time>
      </trkpt>
      <trkpt lat="61.171665" lon="12.947689">
        <ele>730.5</ele>
        <time>2018-01-23T19:25:00Z</time>
      </trkpt>
      <trkpt lat="61.171669" lon="12.947677">
        <ele>731.1</ele>
        <time>2018-01-23T19:25:01Z</time>
      </trkpt>
      <trkpt lat="61.171661" lon="12.947687">
        <ele>731.6</ele>
        <time>2018-01-23T19:25:03Z</time>
      </trkpt>
      <trkpt lat="61.171637" lon="12.947685">
        <ele>732.2</ele>
        <time>2018-01-23T19:25:08Z</time>
      </trkpt>
      <trkpt lat="61.171584" lon="12.947672">
        <ele>732.8</ele>
        <time>2018-01-23T19:25:15Z</time>
      </trkpt>
      <trkpt lat="61.171579" lon="12.947671">
        <ele>733.4</ele>
        <time>2018-01-23T19:25:16Z</time>
      </trkpt>
      <trkpt lat="61.171548" lon="12.947666">
        <ele>733.9</ele>
        <time>2018-01-23T19:25:20Z</time>
      </trkpt>
      <trkpt lat="61.171547" lon="12.947663">
        <ele>734.5</ele>
        <time>2018-01-23T19:25:21Z</time>
      </trkpt>
      <trkpt lat="61.171532" lon="12.94766">
        <ele>735.2</ele>
        <time>2018-01-23T19:25:23Z</time>
      </trkpt>
      <trkpt lat="61.171499" lon="12.947662">
        <ele>735.7</ele>
        <time>2018-01-23T19:25:27Z</time>
      </trkpt>
      <trkpt lat="61.171473" lon="12.947659">
        <ele>736.3</ele>
        <time>2018-01-23T19:25:29Z</time>
      </trkpt>
      <trkpt lat="61.171442" lon="12.947652">
        <ele>736.7</ele>
        <time>2018-01-23T19:25:34Z</time>
      </trkpt>
      <trkpt lat="61.171416" lon="12.947656">
        <ele>737.3</ele>
        <time>2018-01-23T19:25:37Z</time>
      </trkpt>
      <trkpt lat="61.171409" lon="12.947653">
        <ele>737.8</ele>
        <time>2018-01-23T19:25:38Z</time>
      </trkpt>
      <trkpt lat="61.171396" lon="12.947657">
        <ele>738.4</ele>
        <time>2018-01-23T19:25:41Z</time>
      </trkpt>
      <trkpt lat="61.171362" lon="12.94766">
        <ele>738.9</ele>
        <time>2018-01-23T19:25:45Z</time>
      </trkpt>
      <trkpt lat="61.171354" lon="12.947659">
        <ele>739.5</ele>
        <time>2018-01-23T19:25:46Z</time>
      </trkpt>
      <trkpt lat="61.171318" lon="12.947654">
        <ele>740</ele>
        <time>2018-01-23T19:25:51Z</time>
      </trkpt>
      <trkpt lat="61.171317" lon="12.947655">
        <ele>740.5</ele>
        <time>2018-01-23T19:25:52Z</time>
      </trkpt>
      <trkpt lat="61.171301" lon="12.947669">
        <ele>741</ele>
        <time>2018-01-23T19:25:54Z</time>
      </trkpt>
      <trkpt lat="61.171271" lon="12.947695">
        <ele>741.5</ele>
        <time>2018-01-23T19:25:58Z</time>
      </trkpt>
      <trkpt lat="61.171251" lon="12.947703">
        <ele>742</ele>
        <time>2018-01-23T19:26:01Z</time>
      </trkpt>
      <trkpt lat="61.17123" lon="12.947721">
        <ele>742.5</ele>
        <time>2018-01-23T19:26:04Z</time>
      </trkpt>
      <trkpt lat="61.171202" lon="12.947748">
        <ele>743</ele>
        <time>2018-01-23T19:26:07Z</time>
      </trkpt>
      <trkpt lat="61.171169" lon="12.947794">
        <ele>743.5</ele>
        <time>2018-01-23T19:26:12Z</time>
      </trkpt>
      <trkpt lat="61.171168" lon="12.947803">
        <ele>744</ele>
        <time>2018-01-23T19:26:13Z</time>
      </trkpt>
      <trkpt lat="61.17116" lon="12.947825">
        <ele>744.5</ele>
        <time>2018-01-23T19:26:14Z</time>
      </trkpt>
      <trkpt lat="61.171136" lon="12.947856">
        <ele>744.9</ele>
        <time>2018-01-23T19:26:17Z</time>
      </trkpt>
      <trkpt lat="61.17112" lon="12.947868">
        <ele>745.4</ele>
        <time>2018-01-23T19:26:19Z</time>
      </trkpt>
      <trkpt lat="61.171095" lon="12.947884">
        <ele>745.8</ele>
        <time>2018-01-23T19:26:22Z</time>
      </trkpt>
      <trkpt lat="61.171086" lon="12.947889">
        <ele>746.2</ele>
        <time>2018-01-23T19:26:23Z</time>
      </trkpt>
      <trkpt lat="61.171063" lon="12.947898">
        <ele>746.5</ele>
        <time>2018-01-23T19:26:25Z</time>
      </trkpt>
      <trkpt lat="61.17105" lon="12.947901">
        <ele>747</ele>
        <time>2018-01-23T19:26:26Z</time>
      </trkpt>
      <trkpt lat="61.171026" lon="12.947907">
        <ele>747.5</ele>
        <time>2018-01-23T19:26:29Z</time>
      </trkpt>
      <trkpt lat="61.171019" lon="12.947905">
        <ele>747.9</ele>
        <time>2018-01-23T19:26:30Z</time>
      </trkpt>
      <trkpt lat="61.171008" lon="12.947906">
        <ele>748.4</ele>
        <time>2018-01-23T19:26:32Z</time>
      </trkpt>
      <trkpt lat="61.170998" lon="12.947906">
        <ele>748.8</ele>
        <time>2018-01-23T19:26:33Z</time>
      </trkpt>
      <trkpt lat="61.170982" lon="12.947909">
        <ele>749.2</ele>
        <time>2018-01-23T19:26:36Z</time>
      </trkpt>
      <trkpt lat="61.170945" lon="12.947916">
        <ele>749.6</ele>
        <time>2018-01-23T19:26:41Z</time>
      </trkpt>
      <trkpt lat="61.170928" lon="12.947916">
        <ele>750</ele>
        <time>2018-01-23T19:26:44Z</time>
      </trkpt>
      <trkpt lat="61.170905" lon="12.947919">
        <ele>750.5</ele>
        <time>2018-01-23T19:26:47Z</time>
      </trkpt>
      <trkpt lat="61.17089" lon="12.947918">
        <ele>750.9</ele>
        <time>2018-01-23T19:26:50Z</time>
      </trkpt>
      <trkpt lat="61.170879" lon="12.947917">
        <ele>751.5</ele>
        <time>2018-01-23T19:26:51Z</time>
      </trkpt>
      <trkpt lat="61.170854" lon="12.947906">
        <ele>751.9</ele>
        <time>2018-01-23T19:26:55Z</time>
      </trkpt>
      <trkpt lat="61.170843" lon="12.947904">
        <ele>752.4</ele>
        <time>2018-01-23T19:26:57Z</time>
      </trkpt>
      <trkpt lat="61.170819" lon="12.947899">
        <ele>752.9</ele>
        <time>2018-01-23T19:27:01Z</time>
      </trkpt>
      <trkpt lat="61.170807" lon="12.947895">
        <ele>753.4</ele>
        <time>2018-01-23T19:27:03Z</time>
      </trkpt>
      <trkpt lat="61.170776" lon="12.947884">
        <ele>753.8</ele>
        <time>2018-01-23T19:27:08Z</time>
      </trkpt>
      <trkpt lat="61.170769" lon="12.947884">
        <ele>754.4</ele>
        <time>2018-01-23T19:27:09Z</time>
      </trkpt>
      <trkpt lat="61.170755" lon="12.947881">
        <ele>754.8</ele>
        <time>2018-01-23T19:27:12Z</time>
      </trkpt>
      <trkpt lat="61.17072" lon="12.947877">
        <ele>755.4</ele>
        <time>2018-01-23T19:27:16Z</time>
      </trkpt>
      <trkpt lat="61.170705" lon="12.947877">
        <ele>755.8</ele>
        <time>2018-01-23T19:27:18Z</time>
      </trkpt>
      <trkpt lat="61.170681" lon="12.947878">
        <ele>756.4</ele>
        <time>2018-01-23T19:27:21Z</time>
      </trkpt>
      <trkpt lat="61.170674" lon="12.947873">
        <ele>756.8</ele>
        <time>2018-01-23T19:27:23Z</time>
      </trkpt>
      <trkpt lat="61.170659" lon="12.947864">
        <ele>757.3</ele>
        <time>2018-01-23T19:27:25Z</time>
      </trkpt>
      <trkpt lat="61.170629" lon="12.94786">
        <ele>757.7</ele>
        <time>2018-01-23T19:27:30Z</time>
      </trkpt>
      <trkpt lat="61.170622" lon="12.947863">
        <ele>758.2</ele>
        <time>2018-01-23T19:27:31Z</time>
      </trkpt>
      <trkpt lat="61.170595" lon="12.947858">
        <ele>758.6</ele>
        <time>2018-01-23T19:27:35Z</time>
      </trkpt>
      <trkpt lat="61.17058" lon="12.947853">
        <ele>759.1</ele>
        <time>2018-01-23T19:27:37Z</time>
      </trkpt>
      <trkpt lat="61.170572" lon="12.947853">
        <ele>759.5</ele>
        <time>2018-01-23T19:27:38Z</time>
      </trkpt>
      <trkpt lat="61.170559" lon="12.947849">
        <ele>759.9</ele>
        <time>2018-01-23T19:27:41Z</time>
      </trkpt>
      <trkpt lat="61.170518" lon="12.947838">
        <ele>760.4</ele>
        <time>2018-01-23T19:27:46Z</time>
      </trkpt>
      <trkpt lat="61.170513" lon="12.947835">
        <ele>760.8</ele>
        <time>2018-01-23T19:27:50Z</time>
      </trkpt>
      <trkpt lat="61.170513" lon="12.947833">
        <ele>761.2</ele>
        <time>2018-01-23T19:27:52Z</time>
      </trkpt>
      <trkpt lat="61.17051" lon="12.947836">
        <ele>761.6</ele>
        <time>2018-01-23T19:27:55Z</time>
      </trkpt>
      <trkpt lat="61.170484" lon="12.947842">
        <ele>762.2</ele>
        <time>2018-01-23T19:28:01Z</time>
      </trkpt>
      <trkpt lat="61.170438" lon="12.947841">
        <ele>762.6</ele>
        <time>2018-01-23T19:28:08Z</time>
      </trkpt>
      <trkpt lat="61.170437" lon="12.947842">
        <ele>763</ele>
        <time>2018-01-23T19:28:09Z</time>
      </trkpt>
      <trkpt lat="61.170415" lon="12.947839">
        <ele>763.4</ele>
        <time>2018-01-23T19:28:12Z</time>
      </trkpt>
      <trkpt lat="61.170392" lon="12.947831">
        <ele>763.7</ele>
        <time>2018-01-23T19:28:15Z</time>
      </trkpt>
      <trkpt lat="61.170372" lon="12.947825">
        <ele>764.2</ele>
        <time>2018-01-23T19:28:19Z</time>
      </trkpt>
      <trkpt lat="61.170359" lon="12.947824">
        <ele>764.5</ele>
        <time>2018-01-23T19:28:21Z</time>
      </trkpt>
      <trkpt lat="61.170371" lon="12.947823">
        <ele>764.9</ele>
        <time>2018-01-23T19:28:23Z</time>
      </trkpt>
      <trkpt lat="61.170365" lon="12.947826">
        <ele>765.3</ele>
        <time>2018-01-23T19:28:27Z</time>
      </trkpt>
      <trkpt lat="61.170365" lon="12.947826">
        <ele>765.6</ele>
        <time>2018-01-23T19:28:28Z</time>
      </trkpt>
      <trkpt lat="61.170335" lon="12.947819">
        <ele>766</ele>
        <time>2018-01-23T19:28:34Z</time>
      </trkpt>
      <trkpt lat="61.170303" lon="12.947799">
        <ele>766.3</ele>
        <time>2018-01-23T19:28:39Z</time>
      </trkpt>
      <trkpt lat="61.170297" lon="12.947803">
        <ele>766.5</ele>
        <time>2018-01-23T19:28:40Z</time>
      </trkpt>
      <trkpt lat="61.170278" lon="12.947795">
        <ele>766.9</ele>
        <time>2018-01-23T19:28:43Z</time>
      </trkpt>
      <trkpt lat="61.170263" lon="12.947795">
        <ele>767.3</ele>
        <time>2018-01-23T19:28:45Z</time>
      </trkpt>
      <trkpt lat="61.170244" lon="12.9478">
        <ele>767.7</ele>
        <time>2018-01-23T19:28:47Z</time>
      </trkpt>
      <trkpt lat="61.170228" lon="12.94778">
        <ele>768.1</ele>
        <time>2018-01-23T19:28:50Z</time>
      </trkpt>
      <trkpt lat="61.170218" lon="12.947779">
        <ele>768.5</ele>
        <time>2018-01-23T19:28:52Z</time>
      </trkpt>
      <trkpt lat="61.170205" lon="12.947753">
        <ele>768.8</ele>
        <time>2018-01-23T19:28:57Z</time>
      </trkpt>
      <trkpt lat="61.170189" lon="12.94777">
        <ele>769.3</ele>
        <time>2018-01-23T19:28:59Z</time>
      </trkpt>
      <trkpt lat="61.170169" lon="12.947755">
        <ele>769.7</ele>
        <time>2018-01-23T19:29:02Z</time>
      </trkpt>
      <trkpt lat="61.170157" lon="12.947743">
        <ele>770.1</ele>
        <time>2018-01-23T19:29:05Z</time>
      </trkpt>
      <trkpt lat="61.170138" lon="12.947738">
        <ele>770.5</ele>
        <time>2018-01-23T19:29:07Z</time>
      </trkpt>
      <trkpt lat="61.170132" lon="12.947731">
        <ele>770.9</ele>
        <time>2018-01-23T19:29:08Z</time>
      </trkpt>
      <trkpt lat="61.17009" lon="12.947716">
        <ele>771.3</ele>
        <time>2018-01-23T19:29:14Z</time>
      </trkpt>
      <trkpt lat="61.17007" lon="12.947714">
        <ele>771.7</ele>
        <time>2018-01-23T19:29:16Z</time>
      </trkpt>
      <trkpt lat="61.170081" lon="12.947719">
        <ele>772.2</ele>
        <time>2018-01-23T19:29:20Z</time>
      </trkpt>
      <trkpt lat="61.170067" lon="12.947719">
        <ele>772.7</ele>
        <time>2018-01-23T19:29:21Z</time>
      </trkpt>
      <trkpt lat="61.17006" lon="12.947727">
        <ele>773.4</ele>
        <time>2018-01-23T19:29:29Z</time>
      </trkpt>
      <trkpt lat="61.170055" lon="12.947728">
        <ele>773.9</ele>
        <time>2018-01-23T19:29:30Z</time>
      </trkpt>
      <trkpt lat="61.170006" lon="12.947733">
        <ele>774.4</ele>
        <time>2018-01-23T19:29:36Z</time>
      </trkpt>
      <trkpt lat="61.169944" lon="12.947734">
        <ele>774.9</ele>
        <time>2018-01-23T19:29:43Z</time>
      </trkpt>
      <trkpt lat="61.16993" lon="12.94774">
        <ele>775.5</ele>
        <time>2018-01-23T19:29:45Z</time>
      </trkpt>
      <trkpt lat="61.1699" lon="12.94774">
        <ele>776.1</ele>
        <time>2018-01-23T19:29:48Z</time>
      </trkpt>
      <trkpt lat="61.169892" lon="12.947743">
        <ele>776.7</ele>
        <time>2018-01-23T19:29:49Z</time>
      </trkpt>
      <trkpt lat="61.169872" lon="12.94775">
        <ele>777.4</ele>
        <time>2018-01-23T19:29:51Z</time>
      </trkpt>
      <trkpt lat="61.169838" lon="12.947761">
        <ele>778</ele>
        <time>2018-01-23T19:29:55Z</time>
      </trkpt>
      <trkpt lat="61.16983" lon="12.947759">
        <ele>778.5</ele>
        <time>2018-01-23T19:29:56Z</time>
      </trkpt>
      <trkpt lat="61.16982" lon="12.947758">
        <ele>779.1</ele>
        <time>2018-01-23T19:29:57Z</time>
      </trkpt>
      <trkpt lat="61.169776" lon="12.947763">
        <ele>779.5</ele>
        <time>2018-01-23T19:30:02Z</time>
      </trkpt>
      <trkpt lat="61.169763" lon="12.947769">
        <ele>780.1</ele>
        <time>2018-01-23T19:30:04Z</time>
      </trkpt>
      <trkpt lat="61.169724" lon="12.947775">
        <ele>780.6</ele>
        <time>2018-01-23T19:30:09Z</time>
      </trkpt>
      <trkpt lat="61.169697" lon="12.947784">
        <ele>781.1</ele>
        <time>2018-01-23T19:30:12Z</time>
      </trkpt>
      <trkpt lat="61.169675" lon="12.947794">
        <ele>781.5</ele>
        <time>2018-01-23T19:30:14Z</time>
      </trkpt>
      <trkpt lat="61.169669" lon="12.9478">
        <ele>782</ele>
        <time>2018-01-23T19:30:15Z</time>
      </trkpt>
      <trkpt lat="61.169632" lon="12.947823">
        <ele>782.4</ele>
        <time>2018-01-23T19:30:20Z</time>
      </trkpt>
      <trkpt lat="61.169618" lon="12.947826">
        <ele>782.8</ele>
        <time>2018-01-23T19:30:22Z</time>
      </trkpt>
      <trkpt lat="61.169615" lon="12.947823">
        <ele>783.2</ele>
        <time>2018-01-23T19:30:23Z</time>
      </trkpt>
      <trkpt lat="61.169586" lon="12.947829">
        <ele>783.6</ele>
        <time>2018-01-23T19:30:27Z</time>
      </trkpt>
      <trkpt lat="61.169559" lon="12.947833">
        <ele>784</ele>
        <time>2018-01-23T19:30:30Z</time>
      </trkpt>
      <trkpt lat="61.169526" lon="12.947841">
        <ele>784.4</ele>
        <time>2018-01-23T19:30:34Z</time>
      </trkpt>
      <trkpt lat="61.169499" lon="12.947844">
        <ele>784.7</ele>
        <time>2018-01-23T19:30:37Z</time>
      </trkpt>
      <trkpt lat="61.169464" lon="12.947853">
        <ele>785.2</ele>
        <time>2018-01-23T19:30:41Z</time>
      </trkpt>
      <trkpt lat="61.169454" lon="12.947854">
        <ele>785.6</ele>
        <time>2018-01-23T19:30:42Z</time>
      </trkpt>
      <trkpt lat="61.169425" lon="12.94787">
        <ele>786.2</ele>
        <time>2018-01-23T19:30:46Z</time>
      </trkpt>
      <trkpt lat="61.169398" lon="12.947882">
        <ele>786.7</ele>
        <time>2018-01-23T19:30:48Z</time>
      </trkpt>
      <trkpt lat="61.169327" lon="12.94791">
        <ele>787.3</ele>
        <time>2018-01-23T19:30:54Z</time>
      </trkpt>
      <trkpt lat="61.169284" lon="12.947921">
        <ele>787.8</ele>
        <time>2018-01-23T19:30:56Z</time>
      </trkpt>
      <trkpt lat="61.169233" lon="12.947928">
        <ele>788.5</ele>
        <time>2018-01-23T19:31:00Z</time>
      </trkpt>
      <trkpt lat="61.16915" lon="12.947944">
        <ele>789</ele>
        <time>2018-01-23T19:31:05Z</time>
      </trkpt>
      <trkpt lat="61.169124" lon="12.947955">
        <ele>789.5</ele>
        <time>2018-01-23T19:31:07Z</time>
      </trkpt>
      <trkpt lat="61.169052" lon="12.947982">
        <ele>790.1</ele>
        <time>2018-01-23T19:31:11Z</time>
      </trkpt>
      <trkpt lat="61.168966" lon="12.948006">
        <ele>790.6</ele>
        <time>2018-01-23T19:31:18Z</time>
      </trkpt>
      <trkpt lat="61.168919" lon="12.948025">
        <ele>791.1</ele>
        <time>2018-01-23T19:31:22Z</time>
      </trkpt>
      <trkpt lat="61.16891" lon="12.948027">
        <ele>791.6</ele>
        <time>2018-01-23T19:31:23Z</time>
      </trkpt>
      <trkpt lat="61.1689" lon="12.948036">
        <ele>792.1</ele>
        <time>2018-01-23T19:31:24Z</time>
      </trkpt>
      <trkpt lat="61.16886" lon="12.948059">
        <ele>792.5</ele>
        <time>2018-01-23T19:31:28Z</time>
      </trkpt>
      <trkpt lat="61.168815" lon="12.948088">
        <ele>793</ele>
        <time>2018-01-23T19:31:32Z</time>
      </trkpt>
      <trkpt lat="61.168807" lon="12.94809">
        <ele>793.4</ele>
        <time>2018-01-23T19:31:33Z</time>
      </trkpt>
      <trkpt lat="61.168771" lon="12.948114">
        <ele>793.6</ele>
        <time>2018-01-23T19:31:36Z</time>
      </trkpt>
      <trkpt lat="61.168746" lon="12.948127">
        <ele>793.9</ele>
        <time>2018-01-23T19:31:38Z</time>
      </trkpt>
      <trkpt lat="61.1687" lon="12.948156">
        <ele>794.2</ele>
        <time>2018-01-23T19:31:42Z</time>
      </trkpt>
      <trkpt lat="61.168697" lon="12.948154">
        <ele>794.5</ele>
        <time>2018-01-23T19:31:43Z</time>
      </trkpt>
      <trkpt lat="61.168683" lon="12.948203">
        <ele>794.6</ele>
        <time>2018-01-23T19:31:44Z</time>
      </trkpt>
      <trkpt lat="61.168669" lon="12.948242">
        <ele>794.9</ele>
        <time>2018-01-23T19:31:47Z</time>
      </trkpt>
      <trkpt lat="61.168666" lon="12.948255">
        <ele>795.1</ele>
        <time>2018-01-23T19:31:48Z</time>
      </trkpt>
      <trkpt lat="61.168653" lon="12.948313">
        <ele>795.3</ele>
        <time>2018-01-23T19:31:50Z</time>
      </trkpt>
      <trkpt lat="61.168652" lon="12.948353">
        <ele>795.4</ele>
        <time>2018-01-23T19:31:51Z</time>
      </trkpt>
      <trkpt lat="61.168649" lon="12.948381">
        <ele>795.5</ele>
        <time>2018-01-23T19:31:52Z</time>
      </trkpt>
      <trkpt lat="61.168636" lon="12.948546">
        <ele>795.6</ele>
        <time>2018-01-23T19:31:56Z</time>
      </trkpt>
      <trkpt lat="61.168621" lon="12.948684">
        <ele>795.9</ele>
        <time>2018-01-23T19:32:01Z</time>
      </trkpt>
      <trkpt lat="61.168615" lon="12.948706">
        <ele>796.2</ele>
        <time>2018-01-23T19:32:02Z</time>
      </trkpt>
      <trkpt lat="61.168558" lon="12.948854">
        <ele>796.5</ele>
        <time>2018-01-23T19:32:07Z</time>
      </trkpt>
      <trkpt lat="61.168532" lon="12.948867">
        <ele>796.8</ele>
        <time>2018-01-23T19:32:09Z</time>
      </trkpt>
      <trkpt lat="61.16845" lon="12.948852">
        <ele>797.2</ele>
        <time>2018-01-23T19:32:15Z</time>
      </trkpt>
      <trkpt lat="61.168437" lon="12.948856">
        <ele>797.5</ele>
        <time>2018-01-23T19:32:16Z</time>
      </trkpt>
      <trkpt lat="61.168415" lon="12.94885">
        <ele>797.7</ele>
        <time>2018-01-23T19:32:19Z</time>
      </trkpt>
      <trkpt lat="61.168398" lon="12.94885">
        <ele>798.1</ele>
        <time>2018-01-23T19:32:21Z</time>
      </trkpt>
      <trkpt lat="61.168367" lon="12.948847">
        <ele>798.5</ele>
        <time>2018-01-23T19:32:23Z</time>
      </trkpt>
      <trkpt lat="61.168325" lon="12.948842">
        <ele>798.9</ele>
        <time>2018-01-23T19:32:26Z</time>
      </trkpt>
      <trkpt lat="61.168304" lon="12.948845">
        <ele>799.3</ele>
        <time>2018-01-23T19:32:28Z</time>
      </trkpt>
      <trkpt lat="61.16829" lon="12.948851">
        <ele>799.5</ele>
        <time>2018-01-23T19:32:30Z</time>
      </trkpt>
      <trkpt lat="61.16823" lon="12.948856">
        <ele>799.9</ele>
        <time>2018-01-23T19:32:35Z</time>
      </trkpt>
      <trkpt lat="61.168205" lon="12.948859">
        <ele>800.3</ele>
        <time>2018-01-23T19:32:37Z</time>
      </trkpt>
      <trkpt lat="61.168165" lon="12.948853">
        <ele>800.5</ele>
        <time>2018-01-23T19:32:40Z</time>
      </trkpt>
      <trkpt lat="61.168148" lon="12.948842">
        <ele>800.8</ele>
        <time>2018-01-23T19:32:42Z</time>
      </trkpt>
      <trkpt lat="61.168129" lon="12.948851">
        <ele>801.2</ele>
        <time>2018-01-23T19:32:43Z</time>
      </trkpt>
      <trkpt lat="61.168096" lon="12.948858">
        <ele>801.5</ele>
        <time>2018-01-23T19:32:44Z</time>
      </trkpt>
      <trkpt lat="61.168062" lon="12.948839">
        <ele>801.8</ele>
        <time>2018-01-23T19:32:47Z</time>
      </trkpt>
      <trkpt lat="61.168054" lon="12.948839">
        <ele>802.2</ele>
        <time>2018-01-23T19:32:49Z</time>
      </trkpt>
      <trkpt lat="61.168035" lon="12.948834">
        <ele>802.5</ele>
        <time>2018-01-23T19:32:51Z</time>
      </trkpt>
      <trkpt lat="61.168012" lon="12.948836">
        <ele>802.7</ele>
        <time>2018-01-23T19:32:54Z</time>
      </trkpt>
      <trkpt lat="61.168002" lon="12.948838">
        <ele>803</ele>
        <time>2018-01-23T19:32:55Z</time>
      </trkpt>
      <trkpt lat="61.167966" lon="12.948829">
        <ele>803.3</ele>
        <time>2018-01-23T19:32:59Z</time>
      </trkpt>
      <trkpt lat="61.167954" lon="12.948828">
        <ele>803.5</ele>
        <time>2018-01-23T19:33:00Z</time>
      </trkpt>
      <trkpt lat="61.167942" lon="12.94883">
        <ele>803.8</ele>
        <time>2018-01-23T19:33:02Z</time>
      </trkpt>
      <trkpt lat="61.167913" lon="12.948828">
        <ele>804.2</ele>
        <time>2018-01-23T19:33:06Z</time>
      </trkpt>
      <trkpt lat="61.167905" lon="12.948828">
        <ele>804.5</ele>
        <time>2018-01-23T19:33:07Z</time>
      </trkpt>
      <trkpt lat="61.167857" lon="12.948826">
        <ele>804.8</ele>
        <time>2018-01-23T19:33:14Z</time>
      </trkpt>
      <trkpt lat="61.167847" lon="12.948815">
        <ele>805.3</ele>
        <time>2018-01-23T19:33:18Z</time>
      </trkpt>
      <trkpt lat="61.167815" lon="12.948826">
        <ele>805.6</ele>
        <time>2018-01-23T19:33:22Z</time>
      </trkpt>
      <trkpt lat="61.167787" lon="12.948822">
        <ele>806</ele>
        <time>2018-01-23T19:33:25Z</time>
      </trkpt>
      <trkpt lat="61.167767" lon="12.948825">
        <ele>806.5</ele>
        <time>2018-01-23T19:33:27Z</time>
      </trkpt>
      <trkpt lat="61.167674" lon="12.948809">
        <ele>806.9</ele>
        <time>2018-01-23T19:33:33Z</time>
      </trkpt>
      <trkpt lat="61.167614" lon="12.948811">
        <ele>807.3</ele>
        <time>2018-01-23T19:33:37Z</time>
      </trkpt>
      <trkpt lat="61.167586" lon="12.948819">
        <ele>807.6</ele>
        <time>2018-01-23T19:33:39Z</time>
      </trkpt>
      <trkpt lat="61.167549" lon="12.948821">
        <ele>808.1</ele>
        <time>2018-01-23T19:33:42Z</time>
      </trkpt>
      <trkpt lat="61.167541" lon="12.94882">
        <ele>808.5</ele>
        <time>2018-01-23T19:33:43Z</time>
      </trkpt>
      <trkpt lat="61.16752" lon="12.948822">
        <ele>808.9</ele>
        <time>2018-01-23T19:33:45Z</time>
      </trkpt>
      <trkpt lat="61.167465" lon="12.948828">
        <ele>809.3</ele>
        <time>2018-01-23T19:33:51Z</time>
      </trkpt>
      <trkpt lat="61.167452" lon="12.948829">
        <ele>809.5</ele>
        <time>2018-01-23T19:33:53Z</time>
      </trkpt>
      <trkpt lat="61.167412" lon="12.948819">
        <ele>809.8</ele>
        <time>2018-01-23T19:33:58Z</time>
      </trkpt>
      <trkpt lat="61.16737" lon="12.948814">
        <ele>810.2</ele>
        <time>2018-01-23T19:34:03Z</time>
      </trkpt>
      <trkpt lat="61.167279" lon="12.948846">
        <ele>810.5</ele>
        <time>2018-01-23T19:34:10Z</time>
      </trkpt>
      <trkpt lat="61.167207" lon="12.948926">
        <ele>810.7</ele>
        <time>2018-01-23T19:34:15Z</time>
      </trkpt>
      <trkpt lat="61.167168" lon="12.948957">
        <ele>811</ele>
        <time>2018-01-23T19:34:18Z</time>
      </trkpt>
      <trkpt lat="61.16716" lon="12.948963">
        <ele>811.3</ele>
        <time>2018-01-23T19:34:19Z</time>
      </trkpt>
      <trkpt lat="61.167127" lon="12.948967">
        <ele>811.5</ele>
        <time>2018-01-23T19:34:24Z</time>
      </trkpt>
      <trkpt lat="61.167111" lon="12.948955">
        <ele>811.7</ele>
        <time>2018-01-23T19:34:26Z</time>
      </trkpt>
      <trkpt lat="61.167094" lon="12.948955">
        <ele>811.9</ele>
        <time>2018-01-23T19:34:28Z</time>
      </trkpt>
      <trkpt lat="61.16706" lon="12.948949">
        <ele>812.1</ele>
        <time>2018-01-23T19:34:32Z</time>
      </trkpt>
      <trkpt lat="61.167046" lon="12.948949">
        <ele>812.3</ele>
        <time>2018-01-23T19:34:34Z</time>
      </trkpt>
      <trkpt lat="61.167014" lon="12.948943">
        <ele>812.5</ele>
        <time>2018-01-23T19:34:36Z</time>
      </trkpt>
      <trkpt lat="61.166996" lon="12.948938">
        <ele>812.6</ele>
        <time>2018-01-23T19:34:38Z</time>
      </trkpt>
      <trkpt lat="61.16698" lon="12.948931">
        <ele>812.8</ele>
        <time>2018-01-23T19:34:39Z</time>
      </trkpt>
      <trkpt lat="61.166961" lon="12.948927">
        <ele>813.1</ele>
        <time>2018-01-23T19:34:41Z</time>
      </trkpt>
      <trkpt lat="61.166904" lon="12.948935">
        <ele>813.4</ele>
        <time>2018-01-23T19:34:45Z</time>
      </trkpt>
      <trkpt lat="61.166891" lon="12.948935">
        <ele>813.6</ele>
        <time>2018-01-23T19:34:46Z</time>
      </trkpt>
      <trkpt lat="61.166812" lon="12.94892">
        <ele>813.9</ele>
        <time>2018-01-23T19:34:51Z</time>
      </trkpt>
      <trkpt lat="61.166746" lon="12.948914">
        <ele>814.1</ele>
        <time>2018-01-23T19:34:55Z</time>
      </trkpt>
      <trkpt lat="61.166731" lon="12.94892">
        <ele>814.3</ele>
        <time>2018-01-23T19:34:56Z</time>
      </trkpt>
      <trkpt lat="61.166692" lon="12.948945">
        <ele>814.5</ele>
        <time>2018-01-23T19:34:59Z</time>
      </trkpt>
      <trkpt lat="61.166664" lon="12.948973">
        <ele>814.7</ele>
        <time>2018-01-23T19:35:01Z</time>
      </trkpt>
      <trkpt lat="61.166657" lon="12.948987">
        <ele>815</ele>
        <time>2018-01-23T19:35:03Z</time>
      </trkpt>
      <trkpt lat="61.16664" lon="12.949014">
        <ele>815.2</ele>
        <time>2018-01-23T19:35:05Z</time>
      </trkpt>
      <trkpt lat="61.16662" lon="12.949074">
        <ele>815.4</ele>
        <time>2018-01-23T19:35:07Z</time>
      </trkpt>
      <trkpt lat="61.1666" lon="12.949132">
        <ele>815.5</ele>
        <time>2018-01-23T19:35:10Z</time>
      </trkpt>
      <trkpt lat="61.166594" lon="12.949157">
        <ele>815.5</ele>
        <time>2018-01-23T19:35:11Z</time>
      </trkpt>
      <trkpt lat="61.16659" lon="12.949186">
        <ele>815.6</ele>
        <time>2018-01-23T19:35:14Z</time>
      </trkpt>
      <trkpt lat="61.166571" lon="12.94924">
        <ele>815.6</ele>
        <time>2018-01-23T19:35:16Z</time>
      </trkpt>
      <trkpt lat="61.166558" lon="12.949284">
        <ele>815.6</ele>
        <time>2018-01-23T19:35:18Z</time>
      </trkpt>
      <trkpt lat="61.166544" lon="12.94933">
        <ele>815.6</ele>
        <time>2018-01-23T19:35:20Z</time>
      </trkpt>
      <trkpt lat="61.166539" lon="12.949347">
        <ele>815.6</ele>
        <time>2018-01-23T19:35:21Z</time>
      </trkpt>
      <trkpt lat="61.166536" lon="12.949351">
        <ele>815.5</ele>
        <time>2018-01-23T19:35:23Z</time>
      </trkpt>
      <trkpt lat="61.166611" lon="12.949362">
        <ele>815.4</ele>
        <time>2018-01-23T19:36:43Z</time>
      </trkpt>
      <trkpt lat="61.166621" lon="12.949337">
        <ele>815.2</ele>
        <time>2018-01-23T19:36:44Z</time>
      </trkpt>
      <trkpt lat="61.166632" lon="12.949296">
        <ele>815</ele>
        <time>2018-01-23T19:36:45Z</time>
      </trkpt>
      <trkpt lat="61.166639" lon="12.949254">
        <ele>814.7</ele>
        <time>2018-01-23T19:36:46Z</time>
      </trkpt>
      <trkpt lat="61.16668" lon="12.949115">
        <ele>814.5</ele>
        <time>2018-01-23T19:36:49Z</time>
      </trkpt>
      <trkpt lat="61.166748" lon="12.948934">
        <ele>814.2</ele>
        <time>2018-01-23T19:36:53Z</time>
      </trkpt>
      <trkpt lat="61.166776" lon="12.948905">
        <ele>813.9</ele>
        <time>2018-01-23T19:36:54Z</time>
      </trkpt>
      <trkpt lat="61.16684" lon="12.948855">
        <ele>813.6</ele>
        <time>2018-01-23T19:36:56Z</time>
      </trkpt>
      <trkpt lat="61.166924" lon="12.948841">
        <ele>813.4</ele>
        <time>2018-01-23T19:36:58Z</time>
      </trkpt>
      <trkpt lat="61.166962" lon="12.948879">
        <ele>813</ele>
        <time>2018-01-23T19:36:59Z</time>
      </trkpt>
      <trkpt lat="61.166991" lon="12.948924">
        <ele>812.6</ele>
        <time>2018-01-23T19:37:00Z</time>
      </trkpt>
      <trkpt lat="61.167027" lon="12.94898">
        <ele>812.4</ele>
        <time>2018-01-23T19:37:01Z</time>
      </trkpt>
      <trkpt lat="61.16706" lon="12.949025">
        <ele>812</ele>
        <time>2018-01-23T19:37:02Z</time>
      </trkpt>
      <trkpt lat="61.167134" lon="12.949074">
        <ele>811.6</ele>
        <time>2018-01-23T19:37:04Z</time>
      </trkpt>
      <trkpt lat="61.167155" lon="12.949065">
        <ele>811.3</ele>
        <time>2018-01-23T19:37:05Z</time>
      </trkpt>
      <trkpt lat="61.167175" lon="12.949035">
        <ele>810.9</ele>
        <time>2018-01-23T19:37:06Z</time>
      </trkpt>
      <trkpt lat="61.16726" lon="12.949033">
        <ele>810.5</ele>
        <time>2018-01-23T19:37:09Z</time>
      </trkpt>
      <trkpt lat="61.167318" lon="12.949122">
        <ele>810.3</ele>
        <time>2018-01-23T19:37:11Z</time>
      </trkpt>
      <trkpt lat="61.167371" lon="12.949224">
        <ele>810</ele>
        <time>2018-01-23T19:37:13Z</time>
      </trkpt>
      <trkpt lat="61.167419" lon="12.949225">
        <ele>809.6</ele>
        <time>2018-01-23T19:37:15Z</time>
      </trkpt>
      <trkpt lat="61.16743" lon="12.949198">
        <ele>809.3</ele>
        <time>2018-01-23T19:37:16Z</time>
      </trkpt>
      <trkpt lat="61.167436" lon="12.949178">
        <ele>808.9</ele>
        <time>2018-01-23T19:37:17Z</time>
      </trkpt>
      <trkpt lat="61.167478" lon="12.949104">
        <ele>808.5</ele>
        <time>2018-01-23T19:37:19Z</time>
      </trkpt>
      <trkpt lat="61.167498" lon="12.949089">
        <ele>808</ele>
        <time>2018-01-23T19:37:20Z</time>
      </trkpt>
      <trkpt lat="61.167604" lon="12.949042">
        <ele>807.5</ele>
        <time>2018-01-23T19:37:23Z</time>
      </trkpt>
      <trkpt lat="61.167632" lon="12.949071">
        <ele>807.1</ele>
        <time>2018-01-23T19:37:24Z</time>
      </trkpt>
      <trkpt lat="61.16766" lon="12.949108">
        <ele>806.6</ele>
        <time>2018-01-23T19:37:25Z</time>
      </trkpt>
      <trkpt lat="61.167718" lon="12.949198">
        <ele>806.2</ele>
        <time>2018-01-23T19:37:27Z</time>
      </trkpt>
      <trkpt lat="61.167752" lon="12.949207">
        <ele>805.7</ele>
        <time>2018-01-23T19:37:28Z</time>
      </trkpt>
      <trkpt lat="61.167778" lon="12.949185">
        <ele>805.2</ele>
        <time>2018-01-23T19:37:29Z</time>
      </trkpt>
      <trkpt lat="61.167847" lon="12.949079">
        <ele>804.6</ele>
        <time>2018-01-23T19:37:32Z</time>
      </trkpt>
      <trkpt lat="61.167865" lon="12.949045">
        <ele>804.2</ele>
        <time>2018-01-23T19:37:33Z</time>
      </trkpt>
      <trkpt lat="61.167879" lon="12.949018">
        <ele>803.6</ele>
        <time>2018-01-23T19:37:34Z</time>
      </trkpt>
      <trkpt lat="61.167904" lon="12.948969">
        <ele>803.2</ele>
        <time>2018-01-23T19:37:36Z</time>
      </trkpt>
      <trkpt lat="61.167955" lon="12.948887">
        <ele>802.6</ele>
        <time>2018-01-23T19:37:40Z</time>
      </trkpt>
      <trkpt lat="61.168058" lon="12.948815">
        <ele>801.8</ele>
        <time>2018-01-23T19:37:44Z</time>
      </trkpt>
      <trkpt lat="61.168098" lon="12.948799">
        <ele>800.2</ele>
        <time>2018-01-23T19:37:45Z</time>
      </trkpt>
      <trkpt lat="61.168161" lon="12.948845">
        <ele>797.4</ele>
        <time>2018-01-23T19:37:47Z</time>
      </trkpt>
      <trkpt lat="61.168186" lon="12.948888">
        <ele>792.4</ele>
        <time>2018-01-23T19:37:48Z</time>
      </trkpt>
      <trkpt lat="61.168302" lon="12.948877">
        <ele>784.9</ele>
        <time>2018-01-23T19:37:52Z</time>
      </trkpt>
      <trkpt lat="61.168509" lon="12.948954">
        <ele>774.1</ele>
        <time>2018-01-23T19:38:05Z</time>
      </trkpt>
      <trkpt lat="61.169228" lon="12.949329">
        <ele>760.5</ele>
        <time>2018-01-23T19:38:50Z</time>
      </trkpt>
      <trkpt lat="61.169823" lon="12.949737">
        <ele>746.7</ele>
        <time>2018-01-23T19:39:28Z</time>
      </trkpt>
      <trkpt lat="61.170594" lon="12.950263">
        <ele>732.6</ele>
        <time>2018-01-23T19:40:17Z</time>
      </trkpt>
      <trkpt lat="61.171396" lon="12.950971">
        <ele>718.5</ele>
        <time>2018-01-23T19:41:10Z</time>
      </trkpt>
      <trkpt lat="61.172606" lon="12.952001">
        <ele>704.5</ele>
        <time>2018-01-23T19:42:30Z</time>
      </trkpt>
      <trkpt lat="61.173698" lon="12.953449">
        <ele>690.6</ele>
        <time>2018-01-23T19:43:48Z</time>
      </trkpt>
      <trkpt lat="61.173822" lon="12.953588">
        <ele>677.5</ele>
        <time>2018-01-23T19:43:57Z</time>
      </trkpt>
      <trkpt lat="61.174071" lon="12.954029">
        <ele>665.5</ele>
        <time>2018-01-23T19:44:01Z</time>
      </trkpt>
      <trkpt lat="61.174082" lon="12.954113">
        <ele>655.6</ele>
        <time>2018-01-23T19:44:02Z</time>
      </trkpt>
      <trkpt lat="61.174109" lon="12.954297">
        <ele>648.1</ele>
        <time>2018-01-23T19:44:04Z</time>
      </trkpt>
      <trkpt lat="61.174171" lon="12.95444">
        <ele>643.9</ele>
        <time>2018-01-23T19:44:06Z</time>
      </trkpt>
      <trkpt lat="61.174273" lon="12.954658">
        <ele>642.5</ele>
        <time>2018-01-23T19:44:09Z</time>
      </trkpt>
      <trkpt lat="61.174304" lon="12.954733">
        <ele>641.4</ele>
        <time>2018-01-23T19:44:10Z</time>
      </trkpt>
      <trkpt lat="61.174436" lon="12.954883">
        <ele>640.4</ele>
        <time>2018-01-23T19:44:13Z</time>
      </trkpt>
      <trkpt lat="61.174483" lon="12.955076">
        <ele>639.4</ele>
        <time>2018-01-23T19:44:15Z</time>
      </trkpt>
      <trkpt lat="61.174509" lon="12.955174">
        <ele>638.4</ele>
        <time>2018-01-23T19:44:16Z</time>
      </trkpt>
      <trkpt lat="61.17454" lon="12.95527">
        <ele>637.5</ele>
        <time>2018-01-23T19:44:17Z</time>
      </trkpt>
      <trkpt lat="61.174693" lon="12.955431">
        <ele>635.6</ele>
        <time>2018-01-23T19:44:19Z</time>
      </trkpt>
      <trkpt lat="61.174701" lon="12.955549">
        <ele>634.6</ele>
        <time>2018-01-23T19:44:20Z</time>
      </trkpt>
      <trkpt lat="61.174719" lon="12.95564">
        <ele>633.7</ele>
        <time>2018-01-23T19:44:21Z</time>
      </trkpt>
      <trkpt lat="61.174755" lon="12.955725">
        <ele>632.7</ele>
        <time>2018-01-23T19:44:22Z</time>
      </trkpt>
      <trkpt lat="61.174823" lon="12.955905">
        <ele>631.6</ele>
        <time>2018-01-23T19:44:24Z</time>
      </trkpt>
      <trkpt lat="61.174919" lon="12.956225">
        <ele>630.5</ele>
        <time>2018-01-23T19:44:27Z</time>
      </trkpt>
      <trkpt lat="61.174999" lon="12.956441">
        <ele>629.6</ele>
        <time>2018-01-23T19:44:29Z</time>
      </trkpt>
      <trkpt lat="61.175043" lon="12.956547">
        <ele>628.7</ele>
        <time>2018-01-23T19:44:30Z</time>
      </trkpt>
      <trkpt lat="61.175135" lon="12.956746">
        <ele>627.7</ele>
        <time>2018-01-23T19:44:32Z</time>
      </trkpt>
      <trkpt lat="61.175224" lon="12.956919">
        <ele>626.6</ele>
        <time>2018-01-23T19:44:34Z</time>
      </trkpt>
      <trkpt lat="61.175266" lon="12.956998">
        <ele>625.6</ele>
        <time>2018-01-23T19:44:35Z</time>
      </trkpt>
      <trkpt lat="61.175307" lon="12.957077">
        <ele>624.7</ele>
        <time>2018-01-23T19:44:36Z</time>
      </trkpt>
      <trkpt lat="61.175342" lon="12.957142">
        <ele>623.8</ele>
        <time>2018-01-23T19:44:37Z</time>
      </trkpt>
      <trkpt lat="61.175422" lon="12.957292">
        <ele>622.8</ele>
        <time>2018-01-23T19:44:39Z</time>
      </trkpt>
      <trkpt lat="61.175542" lon="12.957504">
        <ele>621.9</ele>
        <time>2018-01-23T19:44:42Z</time>
      </trkpt>
      <trkpt lat="61.175582" lon="12.957575">
        <ele>621</ele>
        <time>2018-01-23T19:44:43Z</time>
      </trkpt>
      <trkpt lat="61.175744" lon="12.957916">
        <ele>620.1</ele>
        <time>2018-01-23T19:44:47Z</time>
      </trkpt>
      <trkpt lat="61.175818" lon="12.958111">
        <ele>619.1</ele>
        <time>2018-01-23T19:44:49Z</time>
      </trkpt>
      <trkpt lat="61.175882" lon="12.958312">
        <ele>618.2</ele>
        <time>2018-01-23T19:44:51Z</time>
      </trkpt>
      <trkpt lat="61.176" lon="12.958711">
        <ele>617.3</ele>
        <time>2018-01-23T19:44:55Z</time>
      </trkpt>
      <trkpt lat="61.176049" lon="12.958903">
        <ele>616.4</ele>
        <time>2018-01-23T19:44:57Z</time>
      </trkpt>
      <trkpt lat="61.176071" lon="12.959001">
        <ele>615.4</ele>
        <time>2018-01-23T19:44:58Z</time>
      </trkpt>
      <trkpt lat="61.176127" lon="12.959298">
        <ele>614.5</ele>
        <time>2018-01-23T19:45:01Z</time>
      </trkpt>
      <trkpt lat="61.176163" lon="12.959495">
        <ele>613.5</ele>
        <time>2018-01-23T19:45:03Z</time>
      </trkpt>
      <trkpt lat="61.176207" lon="12.959693">
        <ele>612.7</ele>
        <time>2018-01-23T19:45:05Z</time>
      </trkpt>
      <trkpt lat="61.176288" lon="12.959979">
        <ele>611.9</ele>
        <time>2018-01-23T19:45:08Z</time>
      </trkpt>
      <trkpt lat="61.176351" lon="12.960203">
        <ele>611.1</ele>
        <time>2018-01-23T19:45:10Z</time>
      </trkpt>
      <trkpt lat="61.176416" lon="12.960422">
        <ele>610.3</ele>
        <time>2018-01-23T19:45:11Z</time>
      </trkpt>
      <trkpt lat="61.176452" lon="12.960527">
        <ele>609.5</ele>
        <time>2018-01-23T19:45:12Z</time>
      </trkpt>
      <trkpt lat="61.176499" lon="12.960634">
        <ele>608.5</ele>
        <time>2018-01-23T19:45:13Z</time>
      </trkpt>
      <trkpt lat="61.176544" lon="12.960733">
        <ele>607.7</ele>
        <time>2018-01-23T19:45:14Z</time>
      </trkpt>
      <trkpt lat="61.176634" lon="12.960923">
        <ele>607</ele>
        <time>2018-01-23T19:45:16Z</time>
      </trkpt>
      <trkpt lat="61.176684" lon="12.961014">
        <ele>606.3</ele>
        <time>2018-01-23T19:45:17Z</time>
      </trkpt>
      <trkpt lat="61.176829" lon="12.961265">
        <ele>605.6</ele>
        <time>2018-01-23T19:45:20Z</time>
      </trkpt>
      <trkpt lat="61.176876" lon="12.961348">
        <ele>605</ele>
        <time>2018-01-23T19:45:21Z</time>
      </trkpt>
      <trkpt lat="61.176922" lon="12.961424">
        <ele>604.3</ele>
        <time>2018-01-23T19:45:22Z</time>
      </trkpt>
      <trkpt lat="61.176967" lon="12.961494">
        <ele>603.5</ele>
        <time>2018-01-23T19:45:23Z</time>
      </trkpt>
      <trkpt lat="61.177012" lon="12.961561">
        <ele>602.9</ele>
        <time>2018-01-23T19:45:24Z</time>
      </trkpt>
      <trkpt lat="61.17706" lon="12.9616">
        <ele>602.3</ele>
        <time>2018-01-23T19:45:25Z</time>
      </trkpt>
      <trkpt lat="61.177164" lon="12.961623">
        <ele>601.7</ele>
        <time>2018-01-23T19:45:27Z</time>
      </trkpt>
      <trkpt lat="61.177215" lon="12.961601">
        <ele>601.2</ele>
        <time>2018-01-23T19:45:28Z</time>
      </trkpt>
      <trkpt lat="61.177311" lon="12.96153">
        <ele>600.6</ele>
        <time>2018-01-23T19:45:30Z</time>
      </trkpt>
      <trkpt lat="61.177356" lon="12.961455">
        <ele>600.1</ele>
        <time>2018-01-23T19:45:31Z</time>
      </trkpt>
      <trkpt lat="61.177445" lon="12.961328">
        <ele>599.7</ele>
        <time>2018-01-23T19:45:33Z</time>
      </trkpt>
      <trkpt lat="61.177566" lon="12.961133">
        <ele>599.4</ele>
        <time>2018-01-23T19:45:36Z</time>
      </trkpt>
      <trkpt lat="61.1776" lon="12.961064">
        <ele>599.1</ele>
        <time>2018-01-23T19:45:37Z</time>
      </trkpt>
      <trkpt lat="61.177626" lon="12.960959">
        <ele>599</ele>
        <time>2018-01-23T19:45:38Z</time>
      </trkpt>
      <trkpt lat="61.177631" lon="12.96087">
        <ele>599.1</ele>
        <time>2018-01-23T19:45:39Z</time>
      </trkpt>
      <trkpt lat="61.177602" lon="12.960733">
        <ele>599.2</ele>
        <time>2018-01-23T19:45:41Z</time>
      </trkpt>
      <trkpt lat="61.177579" lon="12.960683">
        <ele>599.4</ele>
        <time>2018-01-23T19:45:42Z</time>
      </trkpt>
      <trkpt lat="61.17753" lon="12.960672">
        <ele>599.5</ele>
        <time>2018-01-23T19:45:43Z</time>
      </trkpt>
      <trkpt lat="61.177465" lon="12.960618">
        <ele>599.9</ele>
        <time>2018-01-23T19:45:45Z</time>
      </trkpt>
      <trkpt lat="61.1774" lon="12.960548">
        <ele>600.4</ele>
        <time>2018-01-23T19:45:48Z</time>
      </trkpt>
      <trkpt lat="61.177324" lon="12.960446">
        <ele>600.8</ele>
        <time>2018-01-23T19:45:50Z</time>
      </trkpt>
      <trkpt lat="61.177308" lon="12.960423">
        <ele>601.3</ele>
        <time>2018-01-23T19:45:51Z</time>
      </trkpt>
      <trkpt lat="61.177308" lon="12.960423">
        <ele>601.8</ele>
        <time>2018-01-23T19:45:53Z</time>
      </trkpt>
      <trkpt lat="61.177189" lon="12.960252">
        <ele>602.4</ele>
        <time>2018-01-23T19:45:56Z</time>
      </trkpt>
      <trkpt lat="61.17717" lon="12.960205">
        <ele>602.9</ele>
        <time>2018-01-23T19:45:57Z</time>
      </trkpt>
      <trkpt lat="61.177133" lon="12.960126">
        <ele>603.4</ele>
        <time>2018-01-23T19:45:59Z</time>
      </trkpt>
      <trkpt lat="61.177071" lon="12.959993">
        <ele>603.8</ele>
        <time>2018-01-23T19:46:02Z</time>
      </trkpt>
      <trkpt lat="61.177037" lon="12.959897">
        <ele>604.4</ele>
        <time>2018-01-23T19:46:04Z</time>
      </trkpt>
      <trkpt lat="61.176961" lon="12.959735">
        <ele>605.5</ele>
        <time>2018-01-23T19:46:07Z</time>
      </trkpt>
      <trkpt lat="61.17694" lon="12.959701">
        <ele>605.9</ele>
        <time>2018-01-23T19:46:08Z</time>
      </trkpt>
      <trkpt lat="61.176919" lon="12.959654">
        <ele>606.4</ele>
        <time>2018-01-23T19:46:09Z</time>
      </trkpt>
      <trkpt lat="61.176858" lon="12.959515">
        <ele>606.7</ele>
        <time>2018-01-23T19:46:13Z</time>
      </trkpt>
      <trkpt lat="61.176836" lon="12.9595">
        <ele>607</ele>
        <time>2018-01-23T19:46:14Z</time>
      </trkpt>
      <trkpt lat="61.176775" lon="12.959408">
        <ele>607.4</ele>
        <time>2018-01-23T19:46:17Z</time>
      </trkpt>
      <trkpt lat="61.176767" lon="12.95939">
        <ele>607.6</ele>
        <time>2018-01-23T19:46:18Z</time>
      </trkpt>
      <trkpt lat="61.176758" lon="12.959372">
        <ele>608</ele>
        <time>2018-01-23T19:46:19Z</time>
      </trkpt>
      <trkpt lat="61.176736" lon="12.959331">
        <ele>608.4</ele>
        <time>2018-01-23T19:46:21Z</time>
      </trkpt>
      <trkpt lat="61.176728" lon="12.959321">
        <ele>608.7</ele>
        <time>2018-01-23T19:46:23Z</time>
      </trkpt>
      <trkpt lat="61.176705" lon="12.959246">
        <ele>609.1</ele>
        <time>2018-01-23T19:46:26Z</time>
      </trkpt>
      <trkpt lat="61.176646" lon="12.959104">
        <ele>609.4</ele>
        <time>2018-01-23T19:46:30Z</time>
      </trkpt>
      <trkpt lat="61.176641" lon="12.959075">
        <ele>609.7</ele>
        <time>2018-01-23T19:46:31Z</time>
      </trkpt>
      <trkpt lat="61.176612" lon="12.958993">
        <ele>610.1</ele>
        <time>2018-01-23T19:46:34Z</time>
      </trkpt>
      <trkpt lat="61.176561" lon="12.958876">
        <ele>610.5</ele>
        <time>2018-01-23T19:46:38Z</time>
      </trkpt>
      <trkpt lat="61.17655" lon="12.958844">
        <ele>611</ele>
        <time>2018-01-23T19:46:39Z</time>
      </trkpt>
      <trkpt lat="61.176539" lon="12.958822">
        <ele>611.4</ele>
        <time>2018-01-23T19:46:40Z</time>
      </trkpt>
      <trkpt lat="61.176466" lon="12.958679">
        <ele>611.7</ele>
        <time>2018-01-23T19:46:45Z</time>
      </trkpt>
      <trkpt lat="61.176452" lon="12.958648">
        <ele>612.1</ele>
        <time>2018-01-23T19:46:46Z</time>
      </trkpt>
      <trkpt lat="61.176394" lon="12.958519">
        <ele>612.5</ele>
        <time>2018-01-23T19:46:51Z</time>
      </trkpt>
      <trkpt lat="61.176375" lon="12.958464">
        <ele>613</ele>
        <time>2018-01-23T19:46:54Z</time>
      </trkpt>
      <trkpt lat="61.176369" lon="12.958481">
        <ele>613.5</ele>
        <time>2018-01-23T19:47:15Z</time>
      </trkpt>
      <trkpt lat="61.176368" lon="12.958479">
        <ele>614.1</ele>
        <time>2018-01-23T19:47:16Z</time>
      </trkpt>
      <trkpt lat="61.176312" lon="12.958398">
        <ele>614.6</ele>
        <time>2018-01-23T19:47:21Z</time>
      </trkpt>
      <trkpt lat="61.176225" lon="12.958224">
        <ele>615.3</ele>
        <time>2018-01-23T19:47:26Z</time>
      </trkpt>
      <trkpt lat="61.176141" lon="12.958079">
        <ele>615.9</ele>
        <time>2018-01-23T19:47:30Z</time>
      </trkpt>
      <trkpt lat="61.176033" lon="12.957884">
        <ele>616.6</ele>
        <time>2018-01-23T19:47:35Z</time>
      </trkpt>
      <trkpt lat="61.176012" lon="12.957836">
        <ele>617.4</ele>
        <time>2018-01-23T19:47:36Z</time>
      </trkpt>
      <trkpt lat="61.175938" lon="12.957675">
        <ele>618.1</ele>
        <time>2018-01-23T19:47:40Z</time>
      </trkpt>
      <trkpt lat="61.175869" lon="12.957531">
        <ele>618.8</ele>
        <time>2018-01-23T19:47:44Z</time>
      </trkpt>
      <trkpt lat="61.175813" lon="12.957385">
        <ele>619.5</ele>
        <time>2018-01-23T19:47:48Z</time>
      </trkpt>
      <trkpt lat="61.175749" lon="12.957234">
        <ele>620</ele>
        <time>2018-01-23T19:47:51Z</time>
      </trkpt>
      <trkpt lat="61.175727" lon="12.957197">
        <ele>620.5</ele>
        <time>2018-01-23T19:47:52Z</time>
      </trkpt>
      <trkpt lat="61.175677" lon="12.95706">
        <ele>621.1</ele>
        <time>2018-01-23T19:47:54Z</time>
      </trkpt>
      <trkpt lat="61.175672" lon="12.957033">
        <ele>621.6</ele>
        <time>2018-01-23T19:47:55Z</time>
      </trkpt>
      <trkpt lat="61.175624" lon="12.956871">
        <ele>622.1</ele>
        <time>2018-01-23T19:47:59Z</time>
      </trkpt>
      <trkpt lat="61.175615" lon="12.956823">
        <ele>622.5</ele>
        <time>2018-01-23T19:48:00Z</time>
      </trkpt>
      <trkpt lat="61.175585" lon="12.956649">
        <ele>622.8</ele>
        <time>2018-01-23T19:48:04Z</time>
      </trkpt>
      <trkpt lat="61.17555" lon="12.95645">
        <ele>623.2</ele>
        <time>2018-01-23T19:48:09Z</time>
      </trkpt>
      <trkpt lat="61.175531" lon="12.956292">
        <ele>623.5</ele>
        <time>2018-01-23T19:48:13Z</time>
      </trkpt>
      <trkpt lat="61.175522" lon="12.956229">
        <ele>623.8</ele>
        <time>2018-01-23T19:48:15Z</time>
      </trkpt>
      <trkpt lat="61.175498" lon="12.956153">
        <ele>624.1</ele>
        <time>2018-01-23T19:48:17Z</time>
      </trkpt>
      <trkpt lat="61.175478" lon="12.95603">
        <ele>624.4</ele>
        <time>2018-01-23T19:48:20Z</time>
      </trkpt>
      <trkpt lat="61.175467" lon="12.955935">
        <ele>624.5</ele>
        <time>2018-01-23T19:48:24Z</time>
      </trkpt>
      <trkpt lat="61.175473" lon="12.955916">
        <ele>624.7</ele>
        <time>2018-01-23T19:48:28Z</time>
      </trkpt>
      <trkpt lat="61.175469" lon="12.955898">
        <ele>624.7</ele>
        <time>2018-01-23T19:48:30Z</time>
      </trkpt>
      <trkpt lat="61.175476" lon="12.955869">
        <ele>624.6</ele>
        <time>2018-01-23T19:48:31Z</time>
      </trkpt>
      <trkpt lat="61.175483" lon="12.955848">
        <ele>624.4</ele>
        <time>2018-01-23T19:48:33Z</time>
      </trkpt>
      <trkpt lat="61.175506" lon="12.955767">
        <ele>623.9</ele>
        <time>2018-01-23T19:48:37Z</time>
      </trkpt>
      <trkpt lat="61.175546" lon="12.955693">
        <ele>623.4</ele>
        <time>2018-01-23T19:48:42Z</time>
      </trkpt>
      <trkpt lat="61.175563" lon="12.955683">
        <ele>622.7</ele>
        <time>2018-01-23T19:48:43Z</time>
      </trkpt>
      <trkpt lat="61.175701" lon="12.955743">
        <ele>622.1</ele>
        <time>2018-01-23T19:48:48Z</time>
      </trkpt>
      <trkpt lat="61.175853" lon="12.955869">
        <ele>621.4</ele>
        <time>2018-01-23T19:48:52Z</time>
      </trkpt>
      <trkpt lat="61.175922" lon="12.955929">
        <ele>620.6</ele>
        <time>2018-01-23T19:48:54Z</time>
      </trkpt>
      <trkpt lat="61.175977" lon="12.956004">
        <ele>619.9</ele>
        <time>2018-01-23T19:48:56Z</time>
      </trkpt>
      <trkpt lat="61.176102" lon="12.956208">
        <ele>619.1</ele>
        <time>2018-01-23T19:49:00Z</time>
      </trkpt>
      <trkpt lat="61.176129" lon="12.956256">
        <ele>618.4</ele>
        <time>2018-01-23T19:49:01Z</time>
      </trkpt>
      <trkpt lat="61.176196" lon="12.956371">
        <ele>617.7</ele>
        <time>2018-01-23T19:49:04Z</time>
      </trkpt>
      <trkpt lat="61.176221" lon="12.956391">
        <ele>617.3</ele>
        <time>2018-01-23T19:49:05Z</time>
      </trkpt>
      <trkpt lat="61.176237" lon="12.956403">
        <ele>616.9</ele>
        <time>2018-01-23T19:49:06Z</time>
      </trkpt>
      <trkpt lat="61.176244" lon="12.956444">
        <ele>616.6</ele>
        <time>2018-01-23T19:49:09Z</time>
      </trkpt>
      <trkpt lat="61.176242" lon="12.956454">
        <ele>616.5</ele>
        <time>2018-01-23T19:49:10Z</time>
      </trkpt>
      <trkpt lat="61.176238" lon="12.956554">
        <ele>616.2</ele>
        <time>2018-01-23T19:49:13Z</time>
      </trkpt>
      <trkpt lat="61.176232" lon="12.956578">
        <ele>615.9</ele>
        <time>2018-01-23T19:49:17Z</time>
      </trkpt>
      <trkpt lat="61.176268" lon="12.956595">
        <ele>615.5</ele>
        <time>2018-01-23T19:49:20Z</time>
      </trkpt>
      <trkpt lat="61.176285" lon="12.956609">
        <ele>615.1</ele>
        <time>2018-01-23T19:49:22Z</time>
      </trkpt>
      <trkpt lat="61.176314" lon="12.95665">
        <ele>614.7</ele>
        <time>2018-01-23T19:49:24Z</time>
      </trkpt>
      <trkpt lat="61.176404" lon="12.956758">
        <ele>614.3</ele>
        <time>2018-01-23T19:49:27Z</time>
      </trkpt>
      <trkpt lat="61.176444" lon="12.956806">
        <ele>613.7</ele>
        <time>2018-01-23T19:49:28Z</time>
      </trkpt>
      <trkpt lat="61.176505" lon="12.956894">
        <ele>613.2</ele>
        <time>2018-01-23T19:49:30Z</time>
      </trkpt>
      <trkpt lat="61.176581" lon="12.957071">
        <ele>612.5</ele>
        <time>2018-01-23T19:49:33Z</time>
      </trkpt>
      <trkpt lat="61.176608" lon="12.957131">
        <ele>611.8</ele>
        <time>2018-01-23T19:49:34Z</time>
      </trkpt>
      <trkpt lat="61.176634" lon="12.957183">
        <ele>611</ele>
        <time>2018-01-23T19:49:35Z</time>
      </trkpt>
      <trkpt lat="61.176727" lon="12.957388">
        <ele>610.2</ele>
        <time>2018-01-23T19:49:39Z</time>
      </trkpt>
      <trkpt lat="61.1768" lon="12.957582">
        <ele>609.5</ele>
        <time>2018-01-23T19:49:42Z</time>
      </trkpt>
      <trkpt lat="61.176872" lon="12.957779">
        <ele>608.7</ele>
        <time>2018-01-23T19:49:44Z</time>
      </trkpt>
      <trkpt lat="61.176899" lon="12.957845">
        <ele>608.1</ele>
        <time>2018-01-23T19:49:45Z</time>
      </trkpt>
      <trkpt lat="61.176989" lon="12.958142">
        <ele>607.3</ele>
        <time>2018-01-23T19:49:50Z</time>
      </trkpt>
      <trkpt lat="61.177054" lon="12.958373">
        <ele>606.5</ele>
        <time>2018-01-23T19:49:54Z</time>
      </trkpt>
      <trkpt lat="61.177074" lon="12.958421">
        <ele>605.7</ele>
        <time>2018-01-23T19:49:55Z</time>
      </trkpt>
      <trkpt lat="61.177146" lon="12.958601">
        <ele>604.9</ele>
        <time>2018-01-23T19:49:58Z</time>
      </trkpt>
      <trkpt lat="61.177171" lon="12.958668">
        <ele>604.2</ele>
        <time>2018-01-23T19:49:59Z</time>
      </trkpt>
      <trkpt lat="61.177304" lon="12.958999">
        <ele>603.5</ele>
        <time>2018-01-23T19:50:04Z</time>
      </trkpt>
      <trkpt lat="61.177369" lon="12.9591">
        <ele>602.7</ele>
        <time>2018-01-23T19:50:06Z</time>
      </trkpt>
      <trkpt lat="61.177424" lon="12.959218">
        <ele>602.1</ele>
        <time>2018-01-23T19:50:08Z</time>
      </trkpt>
      <trkpt lat="61.177489" lon="12.959377">
        <ele>601.5</ele>
        <time>2018-01-23T19:50:11Z</time>
      </trkpt>
      <trkpt lat="61.177512" lon="12.959433">
        <ele>600.9</ele>
        <time>2018-01-23T19:50:12Z</time>
      </trkpt>
      <trkpt lat="61.177552" lon="12.959535">
        <ele>600.4</ele>
        <time>2018-01-23T19:50:14Z</time>
      </trkpt>
      <trkpt lat="61.177623" lon="12.959697">
        <ele>600.1</ele>
        <time>2018-01-23T19:50:17Z</time>
      </trkpt>
      <trkpt lat="61.177644" lon="12.959774">
        <ele>599.9</ele>
        <time>2018-01-23T19:50:18Z</time>
      </trkpt>
      <trkpt lat="61.177657" lon="12.959919">
        <ele>599.8</ele>
        <time>2018-01-23T19:50:20Z</time>
      </trkpt>
      <trkpt lat="61.177636" lon="12.96004">
        <ele>599.8</ele>
        <time>2018-01-23T19:50:22Z</time>
      </trkpt>
      <trkpt lat="61.177606" lon="12.96005">
        <ele>599.9</ele>
        <time>2018-01-23T19:50:23Z</time>
      </trkpt>
      <trkpt lat="61.17756" lon="12.960018">
        <ele>600.2</ele>
        <time>2018-01-23T19:50:25Z</time>
      </trkpt>
      <trkpt lat="61.177475" lon="12.959979">
        <ele>600.5</ele>
        <time>2018-01-23T19:50:28Z</time>
      </trkpt>
      <trkpt lat="61.177414" lon="12.95995">
        <ele>601</ele>
        <time>2018-01-23T19:50:30Z</time>
      </trkpt>
      <trkpt lat="61.17738" lon="12.959941">
        <ele>601.5</ele>
        <time>2018-01-23T19:50:32Z</time>
      </trkpt>
      <trkpt lat="61.177335" lon="12.959926">
        <ele>602</ele>
        <time>2018-01-23T19:50:34Z</time>
      </trkpt>
      <trkpt lat="61.177244" lon="12.959905">
        <ele>602.5</ele>
        <time>2018-01-23T19:50:37Z</time>
      </trkpt>
      <trkpt lat="61.177225" lon="12.959888">
        <ele>603.1</ele>
        <time>2018-01-23T19:50:38Z</time>
      </trkpt>
      <trkpt lat="61.177148" lon="12.959846">
        <ele>603.6</ele>
        <time>2018-01-23T19:50:41Z</time>
      </trkpt>
      <trkpt lat="61.177132" lon="12.95983">
        <ele>604.1</ele>
        <time>2018-01-23T19:50:42Z</time>
      </trkpt>
      <trkpt lat="61.177059" lon="12.959788">
        <ele>604.5</ele>
        <time>2018-01-23T19:50:45Z</time>
      </trkpt>
      <trkpt lat="61.177028" lon="12.959772">
        <ele>605</ele>
        <time>2018-01-23T19:50:47Z</time>
      </trkpt>
      <trkpt lat="61.176962" lon="12.959726">
        <ele>605.4</ele>
        <time>2018-01-23T19:50:51Z</time>
      </trkpt>
      <trkpt lat="61.176938" lon="12.959707">
        <ele>605.7</ele>
        <time>2018-01-23T19:50:52Z</time>
      </trkpt>
      <trkpt lat="61.176918" lon="12.959676">
        <ele>606.1</ele>
        <time>2018-01-23T19:50:54Z</time>
      </trkpt>
      <trkpt lat="61.176902" lon="12.959655">
        <ele>606.5</ele>
        <time>2018-01-23T19:50:55Z</time>
      </trkpt>
      <trkpt lat="61.176866" lon="12.959607">
        <ele>606.9</ele>
        <time>2018-01-23T19:50:57Z</time>
      </trkpt>
      <trkpt lat="61.176833" lon="12.959549">
        <ele>607.3</ele>
        <time>2018-01-23T19:50:59Z</time>
      </trkpt>
      <trkpt lat="61.176811" lon="12.959501">
        <ele>607.6</ele>
        <time>2018-01-23T19:51:01Z</time>
      </trkpt>
      <trkpt lat="61.176764" lon="12.959403">
        <ele>608.1</ele>
        <time>2018-01-23T19:51:04Z</time>
      </trkpt>
      <trkpt lat="61.1767" lon="12.959285">
        <ele>608.5</ele>
        <time>2018-01-23T19:51:09Z</time>
      </trkpt>
      <trkpt lat="61.176687" lon="12.959249">
        <ele>609</ele>
        <time>2018-01-23T19:51:10Z</time>
      </trkpt>
      <trkpt lat="61.176644" lon="12.959185">
        <ele>609.4</ele>
        <time>2018-01-23T19:51:13Z</time>
      </trkpt>
      <trkpt lat="61.176591" lon="12.959082">
        <ele>609.7</ele>
        <time>2018-01-23T19:51:17Z</time>
      </trkpt>
      <trkpt lat="61.17655" lon="12.958992">
        <ele>610.1</ele>
        <time>2018-01-23T19:51:21Z</time>
      </trkpt>
      <trkpt lat="61.17655" lon="12.958978">
        <ele>610.5</ele>
        <time>2018-01-23T19:51:22Z</time>
      </trkpt>
      <trkpt lat="61.176532" lon="12.958922">
        <ele>610.7</ele>
        <time>2018-01-23T19:51:24Z</time>
      </trkpt>
      <trkpt lat="61.176511" lon="12.958874">
        <ele>611.1</ele>
        <time>2018-01-23T19:51:26Z</time>
      </trkpt>
      <trkpt lat="61.176495" lon="12.958815">
        <ele>611.5</ele>
        <time>2018-01-23T19:51:28Z</time>
      </trkpt>
      <trkpt lat="61.17649" lon="12.95879">
        <ele>611.7</ele>
        <time>2018-01-23T19:51:29Z</time>
      </trkpt>
      <trkpt lat="61.176474" lon="12.958762">
        <ele>612</ele>
        <time>2018-01-23T19:51:30Z</time>
      </trkpt>
      <trkpt lat="61.176451" lon="12.958685">
        <ele>612.3</ele>
        <time>2018-01-23T19:51:32Z</time>
      </trkpt>
      <trkpt lat="61.176406" lon="12.958588">
        <ele>612.5</ele>
        <time>2018-01-23T19:51:36Z</time>
      </trkpt>
      <trkpt lat="61.176395" lon="12.958556">
        <ele>612.9</ele>
        <time>2018-01-23T19:51:37Z</time>
      </trkpt>
      <trkpt lat="61.176354" lon="12.95848">
        <ele>613.3</ele>
        <time>2018-01-23T19:51:41Z</time>
      </trkpt>
      <trkpt lat="61.176318" lon="12.958423">
        <ele>613.7</ele>
        <time>2018-01-23T19:51:43Z</time>
      </trkpt>
      <trkpt lat="61.176306" lon="12.958407">
        <ele>614.1</ele>
        <time>2018-01-23T19:51:44Z</time>
      </trkpt>
      <trkpt lat="61.17629" lon="12.958383">
        <ele>614.5</ele>
        <time>2018-01-23T19:51:45Z</time>
      </trkpt>
      <trkpt lat="61.176239" lon="12.958302">
        <ele>614.8</ele>
        <time>2018-01-23T19:51:48Z</time>
      </trkpt>
      <trkpt lat="61.176184" lon="12.958212">
        <ele>615.2</ele>
        <time>2018-01-23T19:51:51Z</time>
      </trkpt>
      <trkpt lat="61.176127" lon="12.95809">
        <ele>615.5</ele>
        <time>2018-01-23T19:51:55Z</time>
      </trkpt>
      <trkpt lat="61.176104" lon="12.958038">
        <ele>615.9</ele>
        <time>2018-01-23T19:51:57Z</time>
      </trkpt>
      <trkpt lat="61.176076" lon="12.957984">
        <ele>616.3</ele>
        <time>2018-01-23T19:51:59Z</time>
      </trkpt>
      <trkpt lat="61.176035" lon="12.957898">
        <ele>616.7</ele>
        <time>2018-01-23T19:52:02Z</time>
      </trkpt>
      <trkpt lat="61.176012" lon="12.957845">
        <ele>617.1</ele>
        <time>2018-01-23T19:52:04Z</time>
      </trkpt>
      <trkpt lat="61.175988" lon="12.957799">
        <ele>617.5</ele>
        <time>2018-01-23T19:52:06Z</time>
      </trkpt>
      <trkpt lat="61.175954" lon="12.957714">
        <ele>617.8</ele>
        <time>2018-01-23T19:52:09Z</time>
      </trkpt>
      <trkpt lat="61.175941" lon="12.957684">
        <ele>618.2</ele>
        <time>2018-01-23T19:52:10Z</time>
      </trkpt>
      <trkpt lat="61.175877" lon="12.957562">
        <ele>618.5</ele>
        <time>2018-01-23T19:52:15Z</time>
      </trkpt>
      <trkpt lat="61.175859" lon="12.957509">
        <ele>618.9</ele>
        <time>2018-01-23T19:52:17Z</time>
      </trkpt>
      <trkpt lat="61.175837" lon="12.957454">
        <ele>619.3</ele>
        <time>2018-01-23T19:52:19Z</time>
      </trkpt>
      <trkpt lat="61.175792" lon="12.957344">
        <ele>619.6</ele>
        <time>2018-01-23T19:52:23Z</time>
      </trkpt>
      <trkpt lat="61.175781" lon="12.957306">
        <ele>620</ele>
        <time>2018-01-23T19:52:24Z</time>
      </trkpt>
      <trkpt lat="61.175769" lon="12.957277">
        <ele>620.4</ele>
        <time>2018-01-23T19:52:25Z</time>
      </trkpt>
      <trkpt lat="61.175727" lon="12.957173">
        <ele>620.6</ele>
        <time>2018-01-23T19:52:27Z</time>
      </trkpt>
      <trkpt lat="61.175704" lon="12.957097">
        <ele>621</ele>
        <time>2018-01-23T19:52:29Z</time>
      </trkpt>
      <trkpt lat="61.175682" lon="12.957031">
        <ele>621.4</ele>
        <time>2018-01-23T19:52:31Z</time>
      </trkpt>
      <trkpt lat="61.175657" lon="12.956947">
        <ele>621.6</ele>
        <time>2018-01-23T19:52:34Z</time>
      </trkpt>
      <trkpt lat="61.175646" lon="12.956917">
        <ele>622</ele>
        <time>2018-01-23T19:52:35Z</time>
      </trkpt>
      <trkpt lat="61.175611" lon="12.956802">
        <ele>622.5</ele>
        <time>2018-01-23T19:52:39Z</time>
      </trkpt>
      <trkpt lat="61.175599" lon="12.956742">
        <ele>622.8</ele>
        <time>2018-01-23T19:52:41Z</time>
      </trkpt>
      <trkpt lat="61.17558" lon="12.956628">
        <ele>623.3</ele>
        <time>2018-01-23T19:52:44Z</time>
      </trkpt>
      <trkpt lat="61.175551" lon="12.956475">
        <ele>623.7</ele>
        <time>2018-01-23T19:52:48Z</time>
      </trkpt>
      <trkpt lat="61.17552" lon="12.956276">
        <ele>624.1</ele>
        <time>2018-01-23T19:52:53Z</time>
      </trkpt>
      <trkpt lat="61.175482" lon="12.956114">
        <ele>624.5</ele>
        <time>2018-01-23T19:52:58Z</time>
      </trkpt>
      <trkpt lat="61.175468" lon="12.956084">
        <ele>625</ele>
        <time>2018-01-23T19:52:59Z</time>
      </trkpt>
      <trkpt lat="61.175415" lon="12.955981">
        <ele>625.5</ele>
        <time>2018-01-23T19:53:03Z</time>
      </trkpt>
      <trkpt lat="61.175372" lon="12.955897">
        <ele>625.9</ele>
        <time>2018-01-23T19:53:07Z</time>
      </trkpt>
      <trkpt lat="61.17533" lon="12.955813">
        <ele>626.5</ele>
        <time>2018-01-23T19:53:11Z</time>
      </trkpt>
      <trkpt lat="61.175294" lon="12.955744">
        <ele>627</ele>
        <time>2018-01-23T19:53:14Z</time>
      </trkpt>
      <trkpt lat="61.175277" lon="12.955716">
        <ele>627.5</ele>
        <time>2018-01-23T19:53:15Z</time>
      </trkpt>
      <trkpt lat="61.175237" lon="12.955653">
        <ele>628.1</ele>
        <time>2018-01-23T19:53:18Z</time>
      </trkpt>
      <trkpt lat="61.175221" lon="12.955627">
        <ele>628.6</ele>
        <time>2018-01-23T19:53:19Z</time>
      </trkpt>
      <trkpt lat="61.175162" lon="12.955524">
        <ele>629.2</ele>
        <time>2018-01-23T19:53:23Z</time>
      </trkpt>
      <trkpt lat="61.17509" lon="12.955402">
        <ele>629.7</ele>
        <time>2018-01-23T19:53:28Z</time>
      </trkpt>
      <trkpt lat="61.175076" lon="12.955373">
        <ele>630.3</ele>
        <time>2018-01-23T19:53:29Z</time>
      </trkpt>
      <trkpt lat="61.17504" lon="12.955306">
        <ele>630.8</ele>
        <time>2018-01-23T19:53:32Z</time>
      </trkpt>
      <trkpt lat="61.175007" lon="12.955244">
        <ele>631.3</ele>
        <time>2018-01-23T19:53:35Z</time>
      </trkpt>
      <trkpt lat="61.174985" lon="12.955206">
        <ele>631.7</ele>
        <time>2018-01-23T19:53:37Z</time>
      </trkpt>
      <trkpt lat="61.174978" lon="12.955193">
        <ele>632.1</ele>
        <time>2018-01-23T19:53:38Z</time>
      </trkpt>
      <trkpt lat="61.17493" lon="12.955095">
        <ele>632.4</ele>
        <time>2018-01-23T19:53:41Z</time>
      </trkpt>
      <trkpt lat="61.174922" lon="12.955024">
        <ele>632.5</ele>
        <time>2018-01-23T19:53:43Z</time>
      </trkpt>
      <trkpt lat="61.174923" lon="12.954953">
        <ele>632.7</ele>
        <time>2018-01-23T19:53:45Z</time>
      </trkpt>
      <trkpt lat="61.174929" lon="12.954899">
        <ele>632.8</ele>
        <time>2018-01-23T19:53:48Z</time>
      </trkpt>
      <trkpt lat="61.17494" lon="12.95487">
        <ele>633</ele>
        <time>2018-01-23T19:53:51Z</time>
      </trkpt>
      <trkpt lat="61.174942" lon="12.95486">
        <ele>633.2</ele>
        <time>2018-01-23T19:53:52Z</time>
      </trkpt>
      <trkpt lat="61.174962" lon="12.954827">
        <ele>633.3</ele>
        <time>2018-01-23T19:53:56Z</time>
      </trkpt>
      <trkpt lat="61.174972" lon="12.954713">
        <ele>633.4</ele>
        <time>2018-01-23T19:54:01Z</time>
      </trkpt>
      <trkpt lat="61.174973" lon="12.954679">
        <ele>633.5</ele>
        <time>2018-01-23T19:54:02Z</time>
      </trkpt>
      <trkpt lat="61.174969" lon="12.954568">
        <ele>633.6</ele>
        <time>2018-01-23T19:54:05Z</time>
      </trkpt>
      <trkpt lat="61.174977" lon="12.954378">
        <ele>633.8</ele>
        <time>2018-01-23T19:54:09Z</time>
      </trkpt>
      <trkpt lat="61.174995" lon="12.954215">
        <ele>634.1</ele>
        <time>2018-01-23T19:54:12Z</time>
      </trkpt>
      <trkpt lat="61.174998" lon="12.954153">
        <ele>634.4</ele>
        <time>2018-01-23T19:54:13Z</time>
      </trkpt>
      <trkpt lat="61.175022" lon="12.953923">
        <ele>634.6</ele>
        <time>2018-01-23T19:54:16Z</time>
      </trkpt>
      <trkpt lat="61.175042" lon="12.953723">
        <ele>634.9</ele>
        <time>2018-01-23T19:54:19Z</time>
      </trkpt>
      <trkpt lat="61.17507" lon="12.953372">
        <ele>635</ele>
        <time>2018-01-23T19:54:24Z</time>
      </trkpt>
      <trkpt lat="61.175095" lon="12.95309">
        <ele>635.1</ele>
        <time>2018-01-23T19:54:28Z</time>
      </trkpt>
      <trkpt lat="61.1751" lon="12.952909">
        <ele>635.2</ele>
        <time>2018-01-23T19:54:31Z</time>
      </trkpt>
      <trkpt lat="61.17511" lon="12.952756">
        <ele>635.3</ele>
        <time>2018-01-23T19:54:34Z</time>
      </trkpt>
      <trkpt lat="61.175123" lon="12.952596">
        <ele>635.3</ele>
        <time>2018-01-23T19:54:37Z</time>
      </trkpt>
      <trkpt lat="61.175142" lon="12.952403">
        <ele>635.5</ele>
        <time>2018-01-23T19:54:41Z</time>
      </trkpt>
      <trkpt lat="61.175146" lon="12.952345">
        <ele>635.5</ele>
        <time>2018-01-23T19:54:42Z</time>
      </trkpt>
      <trkpt lat="61.175156" lon="12.952186">
        <ele>635.5</ele>
        <time>2018-01-23T19:54:45Z</time>
      </trkpt>
      <trkpt lat="61.175162" lon="12.951972">
        <ele>635.4</ele>
        <time>2018-01-23T19:54:49Z</time>
      </trkpt>
      <trkpt lat="61.175151" lon="12.95178">
        <ele>635.4</ele>
        <time>2018-01-23T19:54:53Z</time>
      </trkpt>
      <trkpt lat="61.175132" lon="12.951565">
        <ele>635.3</ele>
        <time>2018-01-23T19:54:58Z</time>
      </trkpt>
      <trkpt lat="61.175117" lon="12.951388">
        <ele>635.3</ele>
        <time>2018-01-23T19:55:03Z</time>
      </trkpt>
    </trkseg>
  </trk>
</gpx>